
<gpx xmlns="http://www.topografix.com/GPX/1/1" xmlns:gpxx="http://www.garmin.com/xmlschemas/GpxExtensions/v3" xmlns:xsi="http://www.w3.org/2001/XMLSchema-instance" version="1.1" creator="Adze - http://kobotsw.com/apps/adze" xsi:schemaLocation="http://www.topografix.com/GPX/1/1 http://www.topografix.com/GPX/1/1/gpx.xsd http://www.garmin.com/xmlschemas/GpxExtensions/v3 http://www.garmin.com/xmlschemas/GpxExtensionsv3.xsd">
    <metadata>
        <name>Untitled Document</name>
        <link href="http://www.garmin.com"></link>
        <time>2018-02-26T04:50:13.589Z</time>
    </metadata>
    <wpt lon="101.191602" lat="14.706972">
        <ele>198.000000</ele>
        <time>2015-04-24T08:42:25Z</time>
        <name>Arunvit Resort</name>
        <sym>Lodging</sym>
        <extensions>
            <gpxx:WaypointExtension xmlns:gpxx="http://www.garmin.com/xmlschemas/GpxExtensions/v3">
                <gpxx:DisplayMode>SymbolAndName</gpxx:DisplayMode>
            </gpxx:WaypointExtension>
        </extensions>
    </wpt>
    <wpt lon="101.235484" lat="14.724364">
        <ele>212.000000</ele>
        <time>2015-04-25T07:30:13Z</time>
        <name>Water Saturday</name>
        <sym>Drinking Water</sym>
        <extensions>
            <gpxx:WaypointExtension xmlns:gpxx="http://www.garmin.com/xmlschemas/GpxExtensions/v3">
                <gpxx:DisplayMode>SymbolAndName</gpxx:DisplayMode>
            </gpxx:WaypointExtension>
        </extensions>
    </wpt>
    <trk>
        <name>Saturday</name>
        <extensions>
            <gpxx:TrackExtension xmlns:gpxx="http://www.garmin.com/xmlschemas/GpxExtensions/v3">
                <gpxx:DisplayColor>Red</gpxx:DisplayColor>
            </gpxx:TrackExtension>
        </extensions>
        <trkseg>
            <trkpt lon="101.191890" lat="14.707887">
                <ele>199.130000</ele>
                <time>2015-04-25T05:54:37Z</time>
            </trkpt>
            <trkpt lon="101.191874" lat="14.707884">
                <ele>201.530000</ele>
                <time>2015-04-25T05:54:59Z</time>
            </trkpt>
            <trkpt lon="101.191883" lat="14.707862">
                <ele>199.130000</ele>
                <time>2015-04-25T05:55:35Z</time>
            </trkpt>
            <trkpt lon="101.191919" lat="14.707846">
                <ele>208.740000</ele>
                <time>2015-04-25T05:56:16Z</time>
            </trkpt>
            <trkpt lon="101.191903" lat="14.707835">
                <ele>207.300000</ele>
                <time>2015-04-25T05:56:57Z</time>
            </trkpt>
            <trkpt lon="101.191899" lat="14.707852">
                <ele>206.820000</ele>
                <time>2015-04-25T05:57:40Z</time>
            </trkpt>
            <trkpt lon="101.191880" lat="14.707858">
                <ele>200.570000</ele>
                <time>2015-04-25T05:58:23Z</time>
            </trkpt>
            <trkpt lon="101.191907" lat="14.707875">
                <ele>200.090000</ele>
                <time>2015-04-25T05:59:02Z</time>
            </trkpt>
            <trkpt lon="101.191875" lat="14.707885">
                <ele>193.840000</ele>
                <time>2015-04-25T05:59:48Z</time>
            </trkpt>
            <trkpt lon="101.191900" lat="14.707900">
                <ele>191.920000</ele>
                <time>2015-04-25T06:00:22Z</time>
            </trkpt>
            <trkpt lon="101.191867" lat="14.707899">
                <ele>198.170000</ele>
                <time>2015-04-25T06:01:04Z</time>
            </trkpt>
            <trkpt lon="101.191860" lat="14.707900">
                <ele>195.280000</ele>
                <time>2015-04-25T06:01:48Z</time>
            </trkpt>
            <trkpt lon="101.191860" lat="14.707929">
                <ele>186.630000</ele>
                <time>2015-04-25T06:02:24Z</time>
            </trkpt>
            <trkpt lon="101.191826" lat="14.707924">
                <ele>185.190000</ele>
                <time>2015-04-25T06:02:58Z</time>
            </trkpt>
            <trkpt lon="101.191825" lat="14.707873">
                <ele>194.800000</ele>
                <time>2015-04-25T06:03:39Z</time>
            </trkpt>
            <trkpt lon="101.191800" lat="14.707837">
                <ele>202.490000</ele>
                <time>2015-04-25T06:04:07Z</time>
            </trkpt>
            <trkpt lon="101.191784" lat="14.707792">
                <ele>210.670000</ele>
                <time>2015-04-25T06:04:46Z</time>
            </trkpt>
            <trkpt lon="101.191814" lat="14.707816">
                <ele>211.630000</ele>
                <time>2015-04-25T06:05:13Z</time>
            </trkpt>
            <trkpt lon="101.191880" lat="14.707880">
                <ele>201.050000</ele>
                <time>2015-04-25T06:05:56Z</time>
            </trkpt>
            <trkpt lon="101.191908" lat="14.707837">
                <ele>204.900000</ele>
                <time>2015-04-25T06:06:37Z</time>
            </trkpt>
            <trkpt lon="101.191907" lat="14.707857">
                <ele>204.900000</ele>
                <time>2015-04-25T06:07:10Z</time>
            </trkpt>
            <trkpt lon="101.191880" lat="14.707845">
                <ele>206.340000</ele>
                <time>2015-04-25T06:07:44Z</time>
            </trkpt>
            <trkpt lon="101.191862" lat="14.707837">
                <ele>209.700000</ele>
                <time>2015-04-25T06:08:23Z</time>
            </trkpt>
            <trkpt lon="101.191812" lat="14.707819">
                <ele>208.740000</ele>
                <time>2015-04-25T06:09:01Z</time>
            </trkpt>
            <trkpt lon="101.191862" lat="14.707850">
                <ele>205.380000</ele>
                <time>2015-04-25T06:09:39Z</time>
            </trkpt>
            <trkpt lon="101.191907" lat="14.707886">
                <ele>205.380000</ele>
                <time>2015-04-25T06:10:18Z</time>
            </trkpt>
            <trkpt lon="101.191911" lat="14.707863">
                <ele>206.820000</ele>
                <time>2015-04-25T06:10:50Z</time>
            </trkpt>
            <trkpt lon="101.191908" lat="14.707861">
                <ele>203.940000</ele>
                <time>2015-04-25T06:11:27Z</time>
            </trkpt>
            <trkpt lon="101.191935" lat="14.707900">
                <ele>203.940000</ele>
                <time>2015-04-25T06:12:04Z</time>
            </trkpt>
            <trkpt lon="101.191879" lat="14.707862">
                <ele>204.900000</ele>
                <time>2015-04-25T06:12:47Z</time>
            </trkpt>
            <trkpt lon="101.191933" lat="14.707834">
                <ele>205.860000</ele>
                <time>2015-04-25T06:13:19Z</time>
            </trkpt>
            <trkpt lon="101.191953" lat="14.707838">
                <ele>210.190000</ele>
                <time>2015-04-25T06:14:00Z</time>
            </trkpt>
            <trkpt lon="101.191908" lat="14.707860">
                <ele>202.980000</ele>
                <time>2015-04-25T06:14:37Z</time>
            </trkpt>
            <trkpt lon="101.191877" lat="14.707889">
                <ele>199.130000</ele>
                <time>2015-04-25T06:15:18Z</time>
            </trkpt>
            <trkpt lon="101.191905" lat="14.707901">
                <ele>198.170000</ele>
                <time>2015-04-25T06:16:00Z</time>
            </trkpt>
            <trkpt lon="101.191818" lat="14.707878">
                <ele>191.440000</ele>
                <time>2015-04-25T06:16:31Z</time>
            </trkpt>
            <trkpt lon="101.191812" lat="14.707873">
                <ele>191.920000</ele>
                <time>2015-04-25T06:17:13Z</time>
            </trkpt>
            <trkpt lon="101.191808" lat="14.707928">
                <ele>184.230000</ele>
                <time>2015-04-25T06:17:51Z</time>
            </trkpt>
            <trkpt lon="101.191834" lat="14.707906">
                <ele>190.960000</ele>
                <time>2015-04-25T06:18:25Z</time>
            </trkpt>
            <trkpt lon="101.191871" lat="14.707863">
                <ele>199.610000</ele>
                <time>2015-04-25T06:19:08Z</time>
            </trkpt>
            <trkpt lon="101.191894" lat="14.707874">
                <ele>202.980000</ele>
                <time>2015-04-25T06:19:45Z</time>
            </trkpt>
            <trkpt lon="101.191883" lat="14.707846">
                <ele>204.420000</ele>
                <time>2015-04-25T06:20:16Z</time>
            </trkpt>
            <trkpt lon="101.191876" lat="14.707878">
                <ele>198.170000</ele>
                <time>2015-04-25T06:20:55Z</time>
            </trkpt>
            <trkpt lon="101.191917" lat="14.707921">
                <ele>198.650000</ele>
                <time>2015-04-25T06:21:31Z</time>
            </trkpt>
            <trkpt lon="101.191911" lat="14.707927">
                <ele>194.800000</ele>
                <time>2015-04-25T06:22:10Z</time>
            </trkpt>
            <trkpt lon="101.191919" lat="14.707903">
                <ele>199.610000</ele>
                <time>2015-04-25T06:22:45Z</time>
            </trkpt>
            <trkpt lon="101.191905" lat="14.707855">
                <ele>203.460000</ele>
                <time>2015-04-25T06:23:30Z</time>
            </trkpt>
            <trkpt lon="101.191868" lat="14.707852">
                <ele>200.090000</ele>
                <time>2015-04-25T06:24:04Z</time>
            </trkpt>
            <trkpt lon="101.191826" lat="14.707912">
                <ele>190.480000</ele>
                <time>2015-04-25T06:24:48Z</time>
            </trkpt>
            <trkpt lon="101.191869" lat="14.707897">
                <ele>193.360000</ele>
                <time>2015-04-25T06:25:31Z</time>
            </trkpt>
            <trkpt lon="101.191859" lat="14.707879">
                <ele>193.840000</ele>
                <time>2015-04-25T06:26:20Z</time>
            </trkpt>
            <trkpt lon="101.191866" lat="14.707891">
                <ele>190.960000</ele>
                <time>2015-04-25T06:27:02Z</time>
            </trkpt>
            <trkpt lon="101.191866" lat="14.707875">
                <ele>197.690000</ele>
                <time>2015-04-25T06:27:48Z</time>
            </trkpt>
            <trkpt lon="101.191903" lat="14.707850">
                <ele>194.320000</ele>
                <time>2015-04-25T06:28:31Z</time>
            </trkpt>
            <trkpt lon="101.191903" lat="14.707888">
                <ele>194.800000</ele>
                <time>2015-04-25T06:29:12Z</time>
            </trkpt>
            <trkpt lon="101.191898" lat="14.707916">
                <ele>197.690000</ele>
                <time>2015-04-25T06:29:55Z</time>
            </trkpt>
            <trkpt lon="101.191933" lat="14.707854">
                <ele>201.050000</ele>
                <time>2015-04-25T06:30:37Z</time>
            </trkpt>
            <trkpt lon="101.191891" lat="14.707890">
                <ele>195.770000</ele>
                <time>2015-04-25T06:31:16Z</time>
            </trkpt>
            <trkpt lon="101.191886" lat="14.707908">
                <ele>197.210000</ele>
                <time>2015-04-25T06:32:01Z</time>
            </trkpt>
            <trkpt lon="101.191893" lat="14.707907">
                <ele>196.250000</ele>
                <time>2015-04-25T06:32:37Z</time>
            </trkpt>
            <trkpt lon="101.191918" lat="14.707925">
                <ele>194.320000</ele>
                <time>2015-04-25T06:33:23Z</time>
            </trkpt>
            <trkpt lon="101.191880" lat="14.707928">
                <ele>199.610000</ele>
                <time>2015-04-25T06:34:07Z</time>
            </trkpt>
            <trkpt lon="101.191843" lat="14.707903">
                <ele>198.650000</ele>
                <time>2015-04-25T06:34:59Z</time>
            </trkpt>
            <trkpt lon="101.191867" lat="14.707911">
                <ele>195.280000</ele>
                <time>2015-04-25T06:35:48Z</time>
            </trkpt>
            <trkpt lon="101.191895" lat="14.707914">
                <ele>202.980000</ele>
                <time>2015-04-25T06:36:43Z</time>
            </trkpt>
            <trkpt lon="101.191889" lat="14.707933">
                <ele>199.610000</ele>
                <time>2015-04-25T06:37:27Z</time>
            </trkpt>
            <trkpt lon="101.191842" lat="14.707892">
                <ele>194.320000</ele>
                <time>2015-04-25T06:38:16Z</time>
            </trkpt>
            <trkpt lon="101.191867" lat="14.707915">
                <ele>190.000000</ele>
                <time>2015-04-25T06:38:52Z</time>
            </trkpt>
            <trkpt lon="101.191891" lat="14.707898">
                <ele>194.320000</ele>
                <time>2015-04-25T06:39:33Z</time>
            </trkpt>
            <trkpt lon="101.191875" lat="14.707917">
                <ele>196.250000</ele>
                <time>2015-04-25T06:40:08Z</time>
            </trkpt>
            <trkpt lon="101.191873" lat="14.707921">
                <ele>196.250000</ele>
                <time>2015-04-25T06:40:09Z</time>
            </trkpt>
            <trkpt lon="101.191861" lat="14.708097">
                <ele>193.840000</ele>
                <time>2015-04-25T06:40:22Z</time>
            </trkpt>
            <trkpt lon="101.191861" lat="14.708122">
                <ele>193.360000</ele>
                <time>2015-04-25T06:40:24Z</time>
            </trkpt>
            <trkpt lon="101.191861" lat="14.708203">
                <ele>192.880000</ele>
                <time>2015-04-25T06:40:30Z</time>
            </trkpt>
            <trkpt lon="101.191853" lat="14.708458">
                <ele>192.400000</ele>
                <time>2015-04-25T06:40:42Z</time>
            </trkpt>
            <trkpt lon="101.191813" lat="14.708766">
                <ele>190.960000</ele>
                <time>2015-04-25T06:40:56Z</time>
            </trkpt>
            <trkpt lon="101.191608" lat="14.709115">
                <ele>192.400000</ele>
                <time>2015-04-25T06:41:11Z</time>
            </trkpt>
            <trkpt lon="101.191520" lat="14.709211">
                <ele>193.360000</ele>
                <time>2015-04-25T06:41:16Z</time>
            </trkpt>
            <trkpt lon="101.191398" lat="14.709232">
                <ele>193.840000</ele>
                <time>2015-04-25T06:41:20Z</time>
            </trkpt>
            <trkpt lon="101.191211" lat="14.709335">
                <ele>192.400000</ele>
                <time>2015-04-25T06:41:25Z</time>
            </trkpt>
            <trkpt lon="101.190960" lat="14.709586">
                <ele>192.880000</ele>
                <time>2015-04-25T06:41:35Z</time>
            </trkpt>
            <trkpt lon="101.190848" lat="14.709713">
                <ele>191.920000</ele>
                <time>2015-04-25T06:41:41Z</time>
            </trkpt>
            <trkpt lon="101.190825" lat="14.709843">
                <ele>190.480000</ele>
                <time>2015-04-25T06:41:46Z</time>
            </trkpt>
            <trkpt lon="101.190884" lat="14.709989">
                <ele>191.440000</ele>
                <time>2015-04-25T06:41:55Z</time>
            </trkpt>
            <trkpt lon="101.191130" lat="14.709876">
                <ele>196.730000</ele>
                <time>2015-04-25T06:42:09Z</time>
            </trkpt>
            <trkpt lon="101.191318" lat="14.709681">
                <ele>198.650000</ele>
                <time>2015-04-25T06:42:22Z</time>
            </trkpt>
            <trkpt lon="101.191587" lat="14.709256">
                <ele>198.170000</ele>
                <time>2015-04-25T06:42:37Z</time>
            </trkpt>
            <trkpt lon="101.191829" lat="14.708897">
                <ele>197.210000</ele>
                <time>2015-04-25T06:42:51Z</time>
            </trkpt>
            <trkpt lon="101.192080" lat="14.708831">
                <ele>200.090000</ele>
                <time>2015-04-25T06:43:02Z</time>
            </trkpt>
            <trkpt lon="101.192357" lat="14.708836">
                <ele>204.900000</ele>
                <time>2015-04-25T06:43:13Z</time>
            </trkpt>
            <trkpt lon="101.192640" lat="14.708840">
                <ele>210.670000</ele>
                <time>2015-04-25T06:43:25Z</time>
            </trkpt>
            <trkpt lon="101.192946" lat="14.708867">
                <ele>211.630000</ele>
                <time>2015-04-25T06:43:36Z</time>
            </trkpt>
            <trkpt lon="101.193526" lat="14.708950">
                <ele>211.630000</ele>
                <time>2015-04-25T06:43:52Z</time>
            </trkpt>
            <trkpt lon="101.194111" lat="14.709080">
                <ele>205.380000</ele>
                <time>2015-04-25T06:44:07Z</time>
            </trkpt>
            <trkpt lon="101.194749" lat="14.709314">
                <ele>204.900000</ele>
                <time>2015-04-25T06:44:27Z</time>
            </trkpt>
            <trkpt lon="101.195170" lat="14.709495">
                <ele>202.980000</ele>
                <time>2015-04-25T06:44:42Z</time>
            </trkpt>
            <trkpt lon="101.195617" lat="14.709710">
                <ele>203.460000</ele>
                <time>2015-04-25T06:44:57Z</time>
            </trkpt>
            <trkpt lon="101.196103" lat="14.709927">
                <ele>204.420000</ele>
                <time>2015-04-25T06:45:14Z</time>
            </trkpt>
            <trkpt lon="101.196530" lat="14.710092">
                <ele>205.860000</ele>
                <time>2015-04-25T06:45:30Z</time>
            </trkpt>
            <trkpt lon="101.196907" lat="14.710206">
                <ele>207.780000</ele>
                <time>2015-04-25T06:45:47Z</time>
            </trkpt>
            <trkpt lon="101.197299" lat="14.710331">
                <ele>208.740000</ele>
                <time>2015-04-25T06:46:05Z</time>
            </trkpt>
            <trkpt lon="101.197712" lat="14.710506">
                <ele>210.190000</ele>
                <time>2015-04-25T06:46:24Z</time>
            </trkpt>
            <trkpt lon="101.198163" lat="14.710717">
                <ele>211.150000</ele>
                <time>2015-04-25T06:46:42Z</time>
            </trkpt>
            <trkpt lon="101.198617" lat="14.710974">
                <ele>213.070000</ele>
                <time>2015-04-25T06:47:00Z</time>
            </trkpt>
            <trkpt lon="101.199018" lat="14.711256">
                <ele>214.510000</ele>
                <time>2015-04-25T06:47:16Z</time>
            </trkpt>
            <trkpt lon="101.199574" lat="14.711434">
                <ele>217.400000</ele>
                <time>2015-04-25T06:47:33Z</time>
            </trkpt>
            <trkpt lon="101.199985" lat="14.711710">
                <ele>219.320000</ele>
                <time>2015-04-25T06:47:49Z</time>
            </trkpt>
            <trkpt lon="101.200370" lat="14.711868">
                <ele>219.320000</ele>
                <time>2015-04-25T06:48:04Z</time>
            </trkpt>
            <trkpt lon="101.200722" lat="14.712126">
                <ele>221.720000</ele>
                <time>2015-04-25T06:48:18Z</time>
            </trkpt>
            <trkpt lon="101.201300" lat="14.712531">
                <ele>222.200000</ele>
                <time>2015-04-25T06:48:38Z</time>
            </trkpt>
            <trkpt lon="101.201733" lat="14.712769">
                <ele>224.120000</ele>
                <time>2015-04-25T06:48:54Z</time>
            </trkpt>
            <trkpt lon="101.201860" lat="14.712861">
                <ele>225.570000</ele>
                <time>2015-04-25T06:49:04Z</time>
            </trkpt>
            <trkpt lon="101.201958" lat="14.712856">
                <ele>227.010000</ele>
                <time>2015-04-25T06:49:12Z</time>
            </trkpt>
            <trkpt lon="101.202007" lat="14.712849">
                <ele>227.490000</ele>
                <time>2015-04-25T06:49:16Z</time>
            </trkpt>
            <trkpt lon="101.202223" lat="14.712865">
                <ele>230.850000</ele>
                <time>2015-04-25T06:49:32Z</time>
            </trkpt>
            <trkpt lon="101.202361" lat="14.712854">
                <ele>234.220000</ele>
                <time>2015-04-25T06:49:46Z</time>
            </trkpt>
            <trkpt lon="101.202481" lat="14.712816">
                <ele>237.580000</ele>
                <time>2015-04-25T06:50:03Z</time>
            </trkpt>
            <trkpt lon="101.202566" lat="14.712782">
                <ele>239.020000</ele>
                <time>2015-04-25T06:50:15Z</time>
            </trkpt>
            <trkpt lon="101.202675" lat="14.712722">
                <ele>240.470000</ele>
                <time>2015-04-25T06:50:32Z</time>
            </trkpt>
            <trkpt lon="101.202772" lat="14.712662">
                <ele>242.870000</ele>
                <time>2015-04-25T06:50:49Z</time>
            </trkpt>
            <trkpt lon="101.202838" lat="14.712629">
                <ele>244.790000</ele>
                <time>2015-04-25T06:51:02Z</time>
            </trkpt>
            <trkpt lon="101.202951" lat="14.712561">
                <ele>245.270000</ele>
                <time>2015-04-25T06:51:18Z</time>
            </trkpt>
            <trkpt lon="101.202994" lat="14.712536">
                <ele>245.750000</ele>
                <time>2015-04-25T06:51:23Z</time>
            </trkpt>
            <trkpt lon="101.203100" lat="14.712502">
                <ele>247.200000</ele>
                <time>2015-04-25T06:51:35Z</time>
            </trkpt>
            <trkpt lon="101.203204" lat="14.712513">
                <ele>251.040000</ele>
                <time>2015-04-25T06:51:49Z</time>
            </trkpt>
            <trkpt lon="101.203402" lat="14.712471">
                <ele>253.440000</ele>
                <time>2015-04-25T06:52:01Z</time>
            </trkpt>
            <trkpt lon="101.203422" lat="14.712468">
                <ele>253.440000</ele>
                <time>2015-04-25T06:52:02Z</time>
            </trkpt>
            <trkpt lon="101.203772" lat="14.712391">
                <ele>252.960000</ele>
                <time>2015-04-25T06:52:16Z</time>
            </trkpt>
            <trkpt lon="101.204079" lat="14.712146">
                <ele>248.640000</ele>
                <time>2015-04-25T06:52:28Z</time>
            </trkpt>
            <trkpt lon="101.204256" lat="14.712055">
                <ele>246.720000</ele>
                <time>2015-04-25T06:52:32Z</time>
            </trkpt>
            <trkpt lon="101.204777" lat="14.711733">
                <ele>237.580000</ele>
                <time>2015-04-25T06:52:46Z</time>
            </trkpt>
            <trkpt lon="101.205066" lat="14.711383">
                <ele>230.370000</ele>
                <time>2015-04-25T06:52:58Z</time>
            </trkpt>
            <trkpt lon="101.205100" lat="14.711476">
                <ele>229.410000</ele>
                <time>2015-04-25T06:53:07Z</time>
            </trkpt>
            <trkpt lon="101.205060" lat="14.711551">
                <ele>229.410000</ele>
                <time>2015-04-25T06:53:10Z</time>
            </trkpt>
            <trkpt lon="101.204915" lat="14.711955">
                <ele>231.330000</ele>
                <time>2015-04-25T06:53:25Z</time>
            </trkpt>
            <trkpt lon="101.204738" lat="14.712368">
                <ele>233.260000</ele>
                <time>2015-04-25T06:53:40Z</time>
            </trkpt>
            <trkpt lon="101.204484" lat="14.712973">
                <ele>235.660000</ele>
                <time>2015-04-25T06:54:01Z</time>
            </trkpt>
            <trkpt lon="101.204566" lat="14.713208">
                <ele>236.620000</ele>
                <time>2015-04-25T06:54:11Z</time>
            </trkpt>
            <trkpt lon="101.204596" lat="14.713341">
                <ele>239.020000</ele>
                <time>2015-04-25T06:54:19Z</time>
            </trkpt>
            <trkpt lon="101.204725" lat="14.713647">
                <ele>242.390000</ele>
                <time>2015-04-25T06:54:38Z</time>
            </trkpt>
            <trkpt lon="101.204896" lat="14.713795">
                <ele>246.230000</ele>
                <time>2015-04-25T06:54:52Z</time>
            </trkpt>
            <trkpt lon="101.205195" lat="14.713973">
                <ele>245.750000</ele>
                <time>2015-04-25T06:55:07Z</time>
            </trkpt>
            <trkpt lon="101.205699" lat="14.714211">
                <ele>246.230000</ele>
                <time>2015-04-25T06:55:24Z</time>
            </trkpt>
            <trkpt lon="101.205942" lat="14.714305">
                <ele>245.750000</ele>
                <time>2015-04-25T06:55:31Z</time>
            </trkpt>
            <trkpt lon="101.206588" lat="14.714599">
                <ele>241.430000</ele>
                <time>2015-04-25T06:55:45Z</time>
            </trkpt>
            <trkpt lon="101.206933" lat="14.714818">
                <ele>240.470000</ele>
                <time>2015-04-25T06:55:53Z</time>
            </trkpt>
            <trkpt lon="101.206996" lat="14.714877">
                <ele>240.950000</ele>
                <time>2015-04-25T06:55:55Z</time>
            </trkpt>
            <trkpt lon="101.207403" lat="14.715218">
                <ele>243.830000</ele>
                <time>2015-04-25T06:56:09Z</time>
            </trkpt>
            <trkpt lon="101.207914" lat="14.715554">
                <ele>240.950000</ele>
                <time>2015-04-25T06:56:21Z</time>
            </trkpt>
            <trkpt lon="101.208343" lat="14.715768">
                <ele>238.540000</ele>
                <time>2015-04-25T06:56:30Z</time>
            </trkpt>
            <trkpt lon="101.208598" lat="14.715800">
                <ele>236.620000</ele>
                <time>2015-04-25T06:56:35Z</time>
            </trkpt>
            <trkpt lon="101.208743" lat="14.715829">
                <ele>235.660000</ele>
                <time>2015-04-25T06:56:38Z</time>
            </trkpt>
            <trkpt lon="101.208878" lat="14.715880">
                <ele>234.700000</ele>
                <time>2015-04-25T06:56:41Z</time>
            </trkpt>
            <trkpt lon="101.209426" lat="14.716248">
                <ele>232.780000</ele>
                <time>2015-04-25T06:56:54Z</time>
            </trkpt>
            <trkpt lon="101.209844" lat="14.716541">
                <ele>228.450000</ele>
                <time>2015-04-25T06:57:04Z</time>
            </trkpt>
            <trkpt lon="101.210377" lat="14.716690">
                <ele>225.570000</ele>
                <time>2015-04-25T06:57:14Z</time>
            </trkpt>
            <trkpt lon="101.210996" lat="14.717027">
                <ele>226.050000</ele>
                <time>2015-04-25T06:57:30Z</time>
            </trkpt>
            <trkpt lon="101.211026" lat="14.717054">
                <ele>226.050000</ele>
                <time>2015-04-25T06:57:31Z</time>
            </trkpt>
            <trkpt lon="101.211397" lat="14.717454">
                <ele>220.760000</ele>
                <time>2015-04-25T06:57:45Z</time>
            </trkpt>
            <trkpt lon="101.211818" lat="14.717650">
                <ele>217.880000</ele>
                <time>2015-04-25T06:57:57Z</time>
            </trkpt>
            <trkpt lon="101.212272" lat="14.717744">
                <ele>218.360000</ele>
                <time>2015-04-25T06:58:10Z</time>
            </trkpt>
            <trkpt lon="101.212846" lat="14.717914">
                <ele>216.910000</ele>
                <time>2015-04-25T06:58:24Z</time>
            </trkpt>
            <trkpt lon="101.213036" lat="14.717950">
                <ele>215.950000</ele>
                <time>2015-04-25T06:58:32Z</time>
            </trkpt>
            <trkpt lon="101.213330" lat="14.717986">
                <ele>217.880000</ele>
                <time>2015-04-25T06:58:45Z</time>
            </trkpt>
            <trkpt lon="101.213566" lat="14.718163">
                <ele>218.360000</ele>
                <time>2015-04-25T06:58:55Z</time>
            </trkpt>
            <trkpt lon="101.213830" lat="14.718566">
                <ele>218.360000</ele>
                <time>2015-04-25T06:59:07Z</time>
            </trkpt>
            <trkpt lon="101.213865" lat="14.718598">
                <ele>217.880000</ele>
                <time>2015-04-25T06:59:08Z</time>
            </trkpt>
            <trkpt lon="101.214336" lat="14.718891">
                <ele>211.630000</ele>
                <time>2015-04-25T06:59:21Z</time>
            </trkpt>
            <trkpt lon="101.214477" lat="14.718936">
                <ele>210.190000</ele>
                <time>2015-04-25T06:59:24Z</time>
            </trkpt>
            <trkpt lon="101.215097" lat="14.718948">
                <ele>204.900000</ele>
                <time>2015-04-25T06:59:36Z</time>
            </trkpt>
            <trkpt lon="101.215141" lat="14.718942">
                <ele>204.420000</ele>
                <time>2015-04-25T06:59:37Z</time>
            </trkpt>
            <trkpt lon="101.215754" lat="14.718666">
                <ele>202.010000</ele>
                <time>2015-04-25T06:59:51Z</time>
            </trkpt>
            <trkpt lon="101.215887" lat="14.718572">
                <ele>202.490000</ele>
                <time>2015-04-25T06:59:55Z</time>
            </trkpt>
            <trkpt lon="101.216115" lat="14.718225">
                <ele>202.980000</ele>
                <time>2015-04-25T07:00:07Z</time>
            </trkpt>
            <trkpt lon="101.216154" lat="14.717878">
                <ele>206.820000</ele>
                <time>2015-04-25T07:00:20Z</time>
            </trkpt>
            <trkpt lon="101.216351" lat="14.717712">
                <ele>202.490000</ele>
                <time>2015-04-25T07:00:28Z</time>
            </trkpt>
            <trkpt lon="101.216528" lat="14.717678">
                <ele>201.050000</ele>
                <time>2015-04-25T07:00:32Z</time>
            </trkpt>
            <trkpt lon="101.216824" lat="14.717723">
                <ele>197.690000</ele>
                <time>2015-04-25T07:00:39Z</time>
            </trkpt>
            <trkpt lon="101.216989" lat="14.717697">
                <ele>196.730000</ele>
                <time>2015-04-25T07:00:43Z</time>
            </trkpt>
            <trkpt lon="101.217359" lat="14.717535">
                <ele>201.530000</ele>
                <time>2015-04-25T07:00:56Z</time>
            </trkpt>
            <trkpt lon="101.217371" lat="14.717511">
                <ele>201.530000</ele>
                <time>2015-04-25T07:00:57Z</time>
            </trkpt>
            <trkpt lon="101.217376" lat="14.717487">
                <ele>201.050000</ele>
                <time>2015-04-25T07:00:58Z</time>
            </trkpt>
            <trkpt lon="101.217376" lat="14.717459">
                <ele>201.050000</ele>
                <time>2015-04-25T07:00:59Z</time>
            </trkpt>
            <trkpt lon="101.217369" lat="14.717428">
                <ele>201.050000</ele>
                <time>2015-04-25T07:01:00Z</time>
            </trkpt>
            <trkpt lon="101.217358" lat="14.717399">
                <ele>201.050000</ele>
                <time>2015-04-25T07:01:01Z</time>
            </trkpt>
            <trkpt lon="101.217157" lat="14.716855">
                <ele>200.090000</ele>
                <time>2015-04-25T07:01:16Z</time>
            </trkpt>
            <trkpt lon="101.216890" lat="14.716128">
                <ele>200.570000</ele>
                <time>2015-04-25T07:01:33Z</time>
            </trkpt>
            <trkpt lon="101.216817" lat="14.715928">
                <ele>200.570000</ele>
                <time>2015-04-25T07:01:38Z</time>
            </trkpt>
            <trkpt lon="101.216802" lat="14.715887">
                <ele>200.570000</ele>
                <time>2015-04-25T07:01:39Z</time>
            </trkpt>
            <trkpt lon="101.216758" lat="14.715440">
                <ele>200.570000</ele>
                <time>2015-04-25T07:01:53Z</time>
            </trkpt>
            <trkpt lon="101.216838" lat="14.715335">
                <ele>200.570000</ele>
                <time>2015-04-25T07:01:57Z</time>
            </trkpt>
            <trkpt lon="101.216875" lat="14.715314">
                <ele>200.570000</ele>
                <time>2015-04-25T07:01:58Z</time>
            </trkpt>
            <trkpt lon="101.216913" lat="14.715295">
                <ele>200.570000</ele>
                <time>2015-04-25T07:01:59Z</time>
            </trkpt>
            <trkpt lon="101.217343" lat="14.715100">
                <ele>200.570000</ele>
                <time>2015-04-25T07:02:10Z</time>
            </trkpt>
            <trkpt lon="101.217382" lat="14.715084">
                <ele>200.570000</ele>
                <time>2015-04-25T07:02:11Z</time>
            </trkpt>
            <trkpt lon="101.217629" lat="14.714989">
                <ele>201.050000</ele>
                <time>2015-04-25T07:02:17Z</time>
            </trkpt>
            <trkpt lon="101.218225" lat="14.714734">
                <ele>201.530000</ele>
                <time>2015-04-25T07:02:31Z</time>
            </trkpt>
            <trkpt lon="101.218263" lat="14.714707">
                <ele>201.530000</ele>
                <time>2015-04-25T07:02:32Z</time>
            </trkpt>
            <trkpt lon="101.218298" lat="14.714677">
                <ele>201.530000</ele>
                <time>2015-04-25T07:02:33Z</time>
            </trkpt>
            <trkpt lon="101.218330" lat="14.714645">
                <ele>201.530000</ele>
                <time>2015-04-25T07:02:34Z</time>
            </trkpt>
            <trkpt lon="101.218361" lat="14.714612">
                <ele>201.530000</ele>
                <time>2015-04-25T07:02:35Z</time>
            </trkpt>
            <trkpt lon="101.218427" lat="14.714552">
                <ele>201.530000</ele>
                <time>2015-04-25T07:02:37Z</time>
            </trkpt>
            <trkpt lon="101.218466" lat="14.714531">
                <ele>201.530000</ele>
                <time>2015-04-25T07:02:38Z</time>
            </trkpt>
            <trkpt lon="101.218508" lat="14.714519">
                <ele>201.530000</ele>
                <time>2015-04-25T07:02:39Z</time>
            </trkpt>
            <trkpt lon="101.218552" lat="14.714511">
                <ele>201.530000</ele>
                <time>2015-04-25T07:02:40Z</time>
            </trkpt>
            <trkpt lon="101.218598" lat="14.714505">
                <ele>202.010000</ele>
                <time>2015-04-25T07:02:41Z</time>
            </trkpt>
            <trkpt lon="101.219242" lat="14.714305">
                <ele>206.340000</ele>
                <time>2015-04-25T07:02:57Z</time>
            </trkpt>
            <trkpt lon="101.219589" lat="14.714371">
                <ele>207.300000</ele>
                <time>2015-04-25T07:03:08Z</time>
            </trkpt>
            <trkpt lon="101.219898" lat="14.714651">
                <ele>208.740000</ele>
                <time>2015-04-25T07:03:18Z</time>
            </trkpt>
            <trkpt lon="101.219932" lat="14.714677">
                <ele>208.740000</ele>
                <time>2015-04-25T07:03:19Z</time>
            </trkpt>
            <trkpt lon="101.219960" lat="14.714700">
                <ele>208.740000</ele>
                <time>2015-04-25T07:03:20Z</time>
            </trkpt>
            <trkpt lon="101.220379" lat="14.715063">
                <ele>216.430000</ele>
                <time>2015-04-25T07:03:33Z</time>
            </trkpt>
            <trkpt lon="101.220410" lat="14.715102">
                <ele>216.910000</ele>
                <time>2015-04-25T07:03:34Z</time>
            </trkpt>
            <trkpt lon="101.220443" lat="14.715141">
                <ele>217.400000</ele>
                <time>2015-04-25T07:03:35Z</time>
            </trkpt>
            <trkpt lon="101.221035" lat="14.715708">
                <ele>218.840000</ele>
                <time>2015-04-25T07:03:51Z</time>
            </trkpt>
            <trkpt lon="101.221666" lat="14.716101">
                <ele>214.990000</ele>
                <time>2015-04-25T07:04:05Z</time>
            </trkpt>
            <trkpt lon="101.221969" lat="14.716186">
                <ele>212.590000</ele>
                <time>2015-04-25T07:04:11Z</time>
            </trkpt>
            <trkpt lon="101.222020" lat="14.716191">
                <ele>212.110000</ele>
                <time>2015-04-25T07:04:12Z</time>
            </trkpt>
            <trkpt lon="101.222071" lat="14.716191">
                <ele>212.110000</ele>
                <time>2015-04-25T07:04:13Z</time>
            </trkpt>
            <trkpt lon="101.222118" lat="14.716187">
                <ele>212.110000</ele>
                <time>2015-04-25T07:04:14Z</time>
            </trkpt>
            <trkpt lon="101.222165" lat="14.716182">
                <ele>211.630000</ele>
                <time>2015-04-25T07:04:15Z</time>
            </trkpt>
            <trkpt lon="101.222342" lat="14.716137">
                <ele>211.630000</ele>
                <time>2015-04-25T07:04:19Z</time>
            </trkpt>
            <trkpt lon="101.222380" lat="14.716115">
                <ele>211.630000</ele>
                <time>2015-04-25T07:04:20Z</time>
            </trkpt>
            <trkpt lon="101.222418" lat="14.716090">
                <ele>211.150000</ele>
                <time>2015-04-25T07:04:21Z</time>
            </trkpt>
            <trkpt lon="101.222453" lat="14.716060">
                <ele>211.150000</ele>
                <time>2015-04-25T07:04:22Z</time>
            </trkpt>
            <trkpt lon="101.222485" lat="14.716030">
                <ele>211.150000</ele>
                <time>2015-04-25T07:04:23Z</time>
            </trkpt>
            <trkpt lon="101.222805" lat="14.715593">
                <ele>208.260000</ele>
                <time>2015-04-25T07:04:37Z</time>
            </trkpt>
            <trkpt lon="101.223113" lat="14.715121">
                <ele>208.740000</ele>
                <time>2015-04-25T07:04:53Z</time>
            </trkpt>
            <trkpt lon="101.223335" lat="14.714735">
                <ele>207.780000</ele>
                <time>2015-04-25T07:05:07Z</time>
            </trkpt>
            <trkpt lon="101.223343" lat="14.714720">
                <ele>207.780000</ele>
                <time>2015-04-25T07:05:08Z</time>
            </trkpt>
            <trkpt lon="101.223351" lat="14.714707">
                <ele>207.780000</ele>
                <time>2015-04-25T07:05:09Z</time>
            </trkpt>
            <trkpt lon="101.223358" lat="14.714693">
                <ele>207.780000</ele>
                <time>2015-04-25T07:05:10Z</time>
            </trkpt>
            <trkpt lon="101.223364" lat="14.714677">
                <ele>208.260000</ele>
                <time>2015-04-25T07:05:11Z</time>
            </trkpt>
            <trkpt lon="101.223372" lat="14.714661">
                <ele>208.260000</ele>
                <time>2015-04-25T07:05:12Z</time>
            </trkpt>
            <trkpt lon="101.223576" lat="14.714273">
                <ele>207.300000</ele>
                <time>2015-04-25T07:05:27Z</time>
            </trkpt>
            <trkpt lon="101.223815" lat="14.713868">
                <ele>207.780000</ele>
                <time>2015-04-25T07:05:40Z</time>
            </trkpt>
            <trkpt lon="101.224013" lat="14.713535">
                <ele>207.300000</ele>
                <time>2015-04-25T07:05:53Z</time>
            </trkpt>
            <trkpt lon="101.224236" lat="14.713057">
                <ele>207.780000</ele>
                <time>2015-04-25T07:06:08Z</time>
            </trkpt>
            <trkpt lon="101.224724" lat="14.712572">
                <ele>209.700000</ele>
                <time>2015-04-25T07:06:25Z</time>
            </trkpt>
            <trkpt lon="101.225226" lat="14.712453">
                <ele>211.150000</ele>
                <time>2015-04-25T07:06:39Z</time>
            </trkpt>
            <trkpt lon="101.225865" lat="14.712367">
                <ele>211.150000</ele>
                <time>2015-04-25T07:06:56Z</time>
            </trkpt>
            <trkpt lon="101.226286" lat="14.712111">
                <ele>212.110000</ele>
                <time>2015-04-25T07:07:10Z</time>
            </trkpt>
            <trkpt lon="101.226753" lat="14.711794">
                <ele>214.510000</ele>
                <time>2015-04-25T07:07:26Z</time>
            </trkpt>
            <trkpt lon="101.227117" lat="14.711479">
                <ele>215.950000</ele>
                <time>2015-04-25T07:07:40Z</time>
            </trkpt>
            <trkpt lon="101.227266" lat="14.711118">
                <ele>217.880000</ele>
                <time>2015-04-25T07:07:53Z</time>
            </trkpt>
            <trkpt lon="101.227480" lat="14.710731">
                <ele>219.800000</ele>
                <time>2015-04-25T07:08:07Z</time>
            </trkpt>
            <trkpt lon="101.227819" lat="14.710239">
                <ele>221.240000</ele>
                <time>2015-04-25T07:08:27Z</time>
            </trkpt>
            <trkpt lon="101.228060" lat="14.709745">
                <ele>223.160000</ele>
                <time>2015-04-25T07:08:45Z</time>
            </trkpt>
            <trkpt lon="101.228290" lat="14.709506">
                <ele>224.120000</ele>
                <time>2015-04-25T07:08:59Z</time>
            </trkpt>
            <trkpt lon="101.228484" lat="14.709402">
                <ele>225.570000</ele>
                <time>2015-04-25T07:09:12Z</time>
            </trkpt>
            <trkpt lon="101.228756" lat="14.709301">
                <ele>227.970000</ele>
                <time>2015-04-25T07:09:30Z</time>
            </trkpt>
            <trkpt lon="101.228866" lat="14.709254">
                <ele>228.450000</ele>
                <time>2015-04-25T07:09:44Z</time>
            </trkpt>
            <trkpt lon="101.228873" lat="14.709250">
                <ele>228.450000</ele>
                <time>2015-04-25T07:09:59Z</time>
            </trkpt>
            <trkpt lon="101.228882" lat="14.709246">
                <ele>228.930000</ele>
                <time>2015-04-25T07:10:22Z</time>
            </trkpt>
            <trkpt lon="101.228868" lat="14.709243">
                <ele>227.970000</ele>
                <time>2015-04-25T07:10:48Z</time>
            </trkpt>
            <trkpt lon="101.228869" lat="14.709249">
                <ele>227.010000</ele>
                <time>2015-04-25T07:11:19Z</time>
            </trkpt>
            <trkpt lon="101.228865" lat="14.709252">
                <ele>228.450000</ele>
                <time>2015-04-25T07:11:48Z</time>
            </trkpt>
            <trkpt lon="101.228864" lat="14.709252">
                <ele>227.970000</ele>
                <time>2015-04-25T07:12:16Z</time>
            </trkpt>
            <trkpt lon="101.228865" lat="14.709262">
                <ele>229.410000</ele>
                <time>2015-04-25T07:12:42Z</time>
            </trkpt>
            <trkpt lon="101.228865" lat="14.709267">
                <ele>228.450000</ele>
                <time>2015-04-25T07:13:06Z</time>
            </trkpt>
            <trkpt lon="101.228901" lat="14.709271">
                <ele>228.930000</ele>
                <time>2015-04-25T07:13:11Z</time>
            </trkpt>
            <trkpt lon="101.228950" lat="14.709259">
                <ele>229.890000</ele>
                <time>2015-04-25T07:13:27Z</time>
            </trkpt>
            <trkpt lon="101.228973" lat="14.709257">
                <ele>230.370000</ele>
                <time>2015-04-25T07:13:52Z</time>
            </trkpt>
            <trkpt lon="101.228964" lat="14.709255">
                <ele>229.410000</ele>
                <time>2015-04-25T07:14:21Z</time>
            </trkpt>
            <trkpt lon="101.228971" lat="14.709256">
                <ele>228.930000</ele>
                <time>2015-04-25T07:14:43Z</time>
            </trkpt>
            <trkpt lon="101.228988" lat="14.709252">
                <ele>228.930000</ele>
                <time>2015-04-25T07:14:45Z</time>
            </trkpt>
            <trkpt lon="101.229000" lat="14.709245">
                <ele>228.930000</ele>
                <time>2015-04-25T07:14:46Z</time>
            </trkpt>
            <trkpt lon="101.229011" lat="14.709237">
                <ele>228.450000</ele>
                <time>2015-04-25T07:14:47Z</time>
            </trkpt>
            <trkpt lon="101.229022" lat="14.709228">
                <ele>228.930000</ele>
                <time>2015-04-25T07:14:48Z</time>
            </trkpt>
            <trkpt lon="101.229035" lat="14.709223">
                <ele>228.930000</ele>
                <time>2015-04-25T07:14:49Z</time>
            </trkpt>
            <trkpt lon="101.229049" lat="14.709222">
                <ele>228.930000</ele>
                <time>2015-04-25T07:14:50Z</time>
            </trkpt>
            <trkpt lon="101.229065" lat="14.709222">
                <ele>228.930000</ele>
                <time>2015-04-25T07:14:51Z</time>
            </trkpt>
            <trkpt lon="101.229297" lat="14.709169">
                <ele>232.300000</ele>
                <time>2015-04-25T07:15:05Z</time>
            </trkpt>
            <trkpt lon="101.229608" lat="14.709093">
                <ele>235.180000</ele>
                <time>2015-04-25T07:15:23Z</time>
            </trkpt>
            <trkpt lon="101.229694" lat="14.709090">
                <ele>235.660000</ele>
                <time>2015-04-25T07:15:38Z</time>
            </trkpt>
            <trkpt lon="101.229973" lat="14.709194">
                <ele>238.540000</ele>
                <time>2015-04-25T07:15:53Z</time>
            </trkpt>
            <trkpt lon="101.230296" lat="14.709319">
                <ele>240.470000</ele>
                <time>2015-04-25T07:16:10Z</time>
            </trkpt>
            <trkpt lon="101.230415" lat="14.709358">
                <ele>241.430000</ele>
                <time>2015-04-25T07:16:16Z</time>
            </trkpt>
            <trkpt lon="101.230459" lat="14.709438">
                <ele>242.390000</ele>
                <time>2015-04-25T07:16:21Z</time>
            </trkpt>
            <trkpt lon="101.230530" lat="14.709562">
                <ele>243.350000</ele>
                <time>2015-04-25T07:16:29Z</time>
            </trkpt>
            <trkpt lon="101.230808" lat="14.709742">
                <ele>243.830000</ele>
                <time>2015-04-25T07:16:45Z</time>
            </trkpt>
            <trkpt lon="101.231069" lat="14.709874">
                <ele>245.750000</ele>
                <time>2015-04-25T07:17:00Z</time>
            </trkpt>
            <trkpt lon="101.231368" lat="14.709988">
                <ele>247.200000</ele>
                <time>2015-04-25T07:17:15Z</time>
            </trkpt>
            <trkpt lon="101.231757" lat="14.710176">
                <ele>248.160000</ele>
                <time>2015-04-25T07:17:32Z</time>
            </trkpt>
            <trkpt lon="101.232087" lat="14.710344">
                <ele>249.600000</ele>
                <time>2015-04-25T07:17:49Z</time>
            </trkpt>
            <trkpt lon="101.232394" lat="14.710538">
                <ele>251.520000</ele>
                <time>2015-04-25T07:18:07Z</time>
            </trkpt>
            <trkpt lon="101.232536" lat="14.710805">
                <ele>253.930000</ele>
                <time>2015-04-25T07:18:23Z</time>
            </trkpt>
            <trkpt lon="101.232770" lat="14.711010">
                <ele>255.370000</ele>
                <time>2015-04-25T07:18:40Z</time>
            </trkpt>
            <trkpt lon="101.232953" lat="14.711153">
                <ele>258.250000</ele>
                <time>2015-04-25T07:18:53Z</time>
            </trkpt>
            <trkpt lon="101.233164" lat="14.711223">
                <ele>260.650000</ele>
                <time>2015-04-25T07:19:07Z</time>
            </trkpt>
            <trkpt lon="101.233179" lat="14.711227">
                <ele>261.140000</ele>
                <time>2015-04-25T07:19:08Z</time>
            </trkpt>
            <trkpt lon="101.233195" lat="14.711232">
                <ele>261.620000</ele>
                <time>2015-04-25T07:19:09Z</time>
            </trkpt>
            <trkpt lon="101.233210" lat="14.711238">
                <ele>261.620000</ele>
                <time>2015-04-25T07:19:10Z</time>
            </trkpt>
            <trkpt lon="101.233227" lat="14.711242">
                <ele>261.620000</ele>
                <time>2015-04-25T07:19:11Z</time>
            </trkpt>
            <trkpt lon="101.233475" lat="14.711364">
                <ele>263.060000</ele>
                <time>2015-04-25T07:19:25Z</time>
            </trkpt>
            <trkpt lon="101.233725" lat="14.711522">
                <ele>264.980000</ele>
                <time>2015-04-25T07:19:40Z</time>
            </trkpt>
            <trkpt lon="101.234008" lat="14.711702">
                <ele>266.900000</ele>
                <time>2015-04-25T07:19:59Z</time>
            </trkpt>
            <trkpt lon="101.234216" lat="14.711849">
                <ele>268.830000</ele>
                <time>2015-04-25T07:20:15Z</time>
            </trkpt>
            <trkpt lon="101.234422" lat="14.712032">
                <ele>272.190000</ele>
                <time>2015-04-25T07:20:32Z</time>
            </trkpt>
            <trkpt lon="101.234663" lat="14.712172">
                <ele>273.150000</ele>
                <time>2015-04-25T07:20:49Z</time>
            </trkpt>
            <trkpt lon="101.235091" lat="14.712303">
                <ele>270.750000</ele>
                <time>2015-04-25T07:21:04Z</time>
            </trkpt>
            <trkpt lon="101.235601" lat="14.712443">
                <ele>265.940000</ele>
                <time>2015-04-25T07:21:18Z</time>
            </trkpt>
            <trkpt lon="101.235896" lat="14.712342">
                <ele>262.580000</ele>
                <time>2015-04-25T07:21:27Z</time>
            </trkpt>
            <trkpt lon="101.235930" lat="14.712314">
                <ele>262.580000</ele>
                <time>2015-04-25T07:21:28Z</time>
            </trkpt>
            <trkpt lon="101.235961" lat="14.712281">
                <ele>262.100000</ele>
                <time>2015-04-25T07:21:29Z</time>
            </trkpt>
            <trkpt lon="101.236169" lat="14.711852">
                <ele>259.210000</ele>
                <time>2015-04-25T07:21:42Z</time>
            </trkpt>
            <trkpt lon="101.236210" lat="14.711549">
                <ele>258.730000</ele>
                <time>2015-04-25T07:21:54Z</time>
            </trkpt>
            <trkpt lon="101.236362" lat="14.711517">
                <ele>257.770000</ele>
                <time>2015-04-25T07:21:58Z</time>
            </trkpt>
            <trkpt lon="101.236786" lat="14.711725">
                <ele>256.330000</ele>
                <time>2015-04-25T07:22:09Z</time>
            </trkpt>
            <trkpt lon="101.237202" lat="14.711799">
                <ele>253.930000</ele>
                <time>2015-04-25T07:22:17Z</time>
            </trkpt>
            <trkpt lon="101.237256" lat="14.711812">
                <ele>253.440000</ele>
                <time>2015-04-25T07:22:18Z</time>
            </trkpt>
            <trkpt lon="101.237304" lat="14.711828">
                <ele>252.960000</ele>
                <time>2015-04-25T07:22:19Z</time>
            </trkpt>
            <trkpt lon="101.237852" lat="14.712047">
                <ele>248.640000</ele>
                <time>2015-04-25T07:22:30Z</time>
            </trkpt>
            <trkpt lon="101.238746" lat="14.712479">
                <ele>247.200000</ele>
                <time>2015-04-25T07:22:49Z</time>
            </trkpt>
            <trkpt lon="101.239455" lat="14.712720">
                <ele>246.720000</ele>
                <time>2015-04-25T07:23:05Z</time>
            </trkpt>
            <trkpt lon="101.240248" lat="14.712782">
                <ele>245.270000</ele>
                <time>2015-04-25T07:23:21Z</time>
            </trkpt>
            <trkpt lon="101.240757" lat="14.712830">
                <ele>244.310000</ele>
                <time>2015-04-25T07:23:33Z</time>
            </trkpt>
            <trkpt lon="101.240769" lat="14.712866">
                <ele>244.310000</ele>
                <time>2015-04-25T07:23:34Z</time>
            </trkpt>
            <trkpt lon="101.240924" lat="14.713389">
                <ele>245.270000</ele>
                <time>2015-04-25T07:23:49Z</time>
            </trkpt>
            <trkpt lon="101.240938" lat="14.713429">
                <ele>245.270000</ele>
                <time>2015-04-25T07:23:50Z</time>
            </trkpt>
            <trkpt lon="101.241232" lat="14.714142">
                <ele>245.750000</ele>
                <time>2015-04-25T07:24:07Z</time>
            </trkpt>
            <trkpt lon="101.241518" lat="14.714961">
                <ele>244.310000</ele>
                <time>2015-04-25T07:24:25Z</time>
            </trkpt>
            <trkpt lon="101.241690" lat="14.715864">
                <ele>242.870000</ele>
                <time>2015-04-25T07:24:43Z</time>
            </trkpt>
            <trkpt lon="101.241942" lat="14.716860">
                <ele>240.470000</ele>
                <time>2015-04-25T07:25:04Z</time>
            </trkpt>
            <trkpt lon="101.242282" lat="14.717837">
                <ele>236.620000</ele>
                <time>2015-04-25T07:25:24Z</time>
            </trkpt>
            <trkpt lon="101.242696" lat="14.718721">
                <ele>235.660000</ele>
                <time>2015-04-25T07:25:42Z</time>
            </trkpt>
            <trkpt lon="101.242730" lat="14.718761">
                <ele>235.660000</ele>
                <time>2015-04-25T07:25:43Z</time>
            </trkpt>
            <trkpt lon="101.242769" lat="14.718794">
                <ele>235.180000</ele>
                <time>2015-04-25T07:25:44Z</time>
            </trkpt>
            <trkpt lon="101.242816" lat="14.718822">
                <ele>235.660000</ele>
                <time>2015-04-25T07:25:45Z</time>
            </trkpt>
            <trkpt lon="101.242866" lat="14.718843">
                <ele>235.660000</ele>
                <time>2015-04-25T07:25:46Z</time>
            </trkpt>
            <trkpt lon="101.242918" lat="14.718861">
                <ele>235.660000</ele>
                <time>2015-04-25T07:25:47Z</time>
            </trkpt>
            <trkpt lon="101.242970" lat="14.718873">
                <ele>235.660000</ele>
                <time>2015-04-25T07:25:48Z</time>
            </trkpt>
            <trkpt lon="101.243022" lat="14.718884">
                <ele>235.660000</ele>
                <time>2015-04-25T07:25:49Z</time>
            </trkpt>
            <trkpt lon="101.243631" lat="14.719077">
                <ele>236.140000</ele>
                <time>2015-04-25T07:26:02Z</time>
            </trkpt>
            <trkpt lon="101.243670" lat="14.719101">
                <ele>236.140000</ele>
                <time>2015-04-25T07:26:03Z</time>
            </trkpt>
            <trkpt lon="101.243706" lat="14.719127">
                <ele>236.620000</ele>
                <time>2015-04-25T07:26:04Z</time>
            </trkpt>
            <trkpt lon="101.243741" lat="14.719155">
                <ele>236.620000</ele>
                <time>2015-04-25T07:26:05Z</time>
            </trkpt>
            <trkpt lon="101.243774" lat="14.719186">
                <ele>236.620000</ele>
                <time>2015-04-25T07:26:06Z</time>
            </trkpt>
            <trkpt lon="101.243948" lat="14.719400">
                <ele>235.660000</ele>
                <time>2015-04-25T07:26:12Z</time>
            </trkpt>
            <trkpt lon="101.243993" lat="14.719479">
                <ele>235.180000</ele>
                <time>2015-04-25T07:26:14Z</time>
            </trkpt>
            <trkpt lon="101.244175" lat="14.720108">
                <ele>232.780000</ele>
                <time>2015-04-25T07:26:27Z</time>
            </trkpt>
            <trkpt lon="101.244256" lat="14.720607">
                <ele>230.850000</ele>
                <time>2015-04-25T07:26:41Z</time>
            </trkpt>
            <trkpt lon="101.244233" lat="14.720639">
                <ele>230.850000</ele>
                <time>2015-04-25T07:26:43Z</time>
            </trkpt>
            <trkpt lon="101.244213" lat="14.720650">
                <ele>230.850000</ele>
                <time>2015-04-25T07:26:44Z</time>
            </trkpt>
            <trkpt lon="101.244187" lat="14.720663">
                <ele>230.850000</ele>
                <time>2015-04-25T07:26:45Z</time>
            </trkpt>
            <trkpt lon="101.243855" lat="14.720958">
                <ele>231.810000</ele>
                <time>2015-04-25T07:26:57Z</time>
            </trkpt>
            <trkpt lon="101.243587" lat="14.721570">
                <ele>229.890000</ele>
                <time>2015-04-25T07:27:10Z</time>
            </trkpt>
            <trkpt lon="101.243091" lat="14.722143">
                <ele>227.010000</ele>
                <time>2015-04-25T07:27:23Z</time>
            </trkpt>
            <trkpt lon="101.242293" lat="14.722809">
                <ele>224.120000</ele>
                <time>2015-04-25T07:27:39Z</time>
            </trkpt>
            <trkpt lon="101.241494" lat="14.723407">
                <ele>221.720000</ele>
                <time>2015-04-25T07:27:55Z</time>
            </trkpt>
            <trkpt lon="101.240537" lat="14.723852">
                <ele>218.360000</ele>
                <time>2015-04-25T07:28:10Z</time>
            </trkpt>
            <trkpt lon="101.240383" lat="14.723888">
                <ele>217.880000</ele>
                <time>2015-04-25T07:28:12Z</time>
            </trkpt>
            <trkpt lon="101.240304" lat="14.723896">
                <ele>217.400000</ele>
                <time>2015-04-25T07:28:13Z</time>
            </trkpt>
            <trkpt lon="101.240224" lat="14.723899">
                <ele>217.400000</ele>
                <time>2015-04-25T07:28:14Z</time>
            </trkpt>
            <trkpt lon="101.240145" lat="14.723892">
                <ele>216.910000</ele>
                <time>2015-04-25T07:28:15Z</time>
            </trkpt>
            <trkpt lon="101.240063" lat="14.723878">
                <ele>216.430000</ele>
                <time>2015-04-25T07:28:16Z</time>
            </trkpt>
            <trkpt lon="101.239985" lat="14.723860">
                <ele>216.430000</ele>
                <time>2015-04-25T07:28:17Z</time>
            </trkpt>
            <trkpt lon="101.239106" lat="14.723668">
                <ele>215.950000</ele>
                <time>2015-04-25T07:28:30Z</time>
            </trkpt>
            <trkpt lon="101.238888" lat="14.723667">
                <ele>216.910000</ele>
                <time>2015-04-25T07:28:34Z</time>
            </trkpt>
            <trkpt lon="101.238186" lat="14.723704">
                <ele>219.320000</ele>
                <time>2015-04-25T07:28:51Z</time>
            </trkpt>
            <trkpt lon="101.237609" lat="14.723765">
                <ele>219.800000</ele>
                <time>2015-04-25T07:29:06Z</time>
            </trkpt>
            <trkpt lon="101.236918" lat="14.723845">
                <ele>218.840000</ele>
                <time>2015-04-25T07:29:21Z</time>
            </trkpt>
            <trkpt lon="101.236105" lat="14.724010">
                <ele>216.430000</ele>
                <time>2015-04-25T07:29:37Z</time>
            </trkpt>
            <trkpt lon="101.235725" lat="14.724116">
                <ele>214.030000</ele>
                <time>2015-04-25T07:29:44Z</time>
            </trkpt>
            <trkpt lon="101.235686" lat="14.724136">
                <ele>214.030000</ele>
                <time>2015-04-25T07:29:45Z</time>
            </trkpt>
            <trkpt lon="101.235654" lat="14.724156">
                <ele>213.550000</ele>
                <time>2015-04-25T07:29:46Z</time>
            </trkpt>
            <trkpt lon="101.235495" lat="14.724352">
                <ele>211.630000</ele>
                <time>2015-04-25T07:29:56Z</time>
            </trkpt>
            <trkpt lon="101.235481" lat="14.724365">
                <ele>211.630000</ele>
                <time>2015-04-25T07:30:07Z</time>
            </trkpt>
            <trkpt lon="101.235498" lat="14.724357">
                <ele>212.110000</ele>
                <time>2015-04-25T07:30:43Z</time>
            </trkpt>
            <trkpt lon="101.235481" lat="14.724355">
                <ele>211.150000</ele>
                <time>2015-04-25T07:31:24Z</time>
            </trkpt>
            <trkpt lon="101.235487" lat="14.724345">
                <ele>214.990000</ele>
                <time>2015-04-25T07:32:11Z</time>
            </trkpt>
            <trkpt lon="101.235494" lat="14.724342">
                <ele>214.030000</ele>
                <time>2015-04-25T07:32:57Z</time>
            </trkpt>
            <trkpt lon="101.235487" lat="14.724356">
                <ele>213.550000</ele>
                <time>2015-04-25T07:33:29Z</time>
            </trkpt>
            <trkpt lon="101.235500" lat="14.724362">
                <ele>211.630000</ele>
                <time>2015-04-25T07:34:09Z</time>
            </trkpt>
            <trkpt lon="101.235491" lat="14.724361">
                <ele>213.070000</ele>
                <time>2015-04-25T07:34:46Z</time>
            </trkpt>
            <trkpt lon="101.235477" lat="14.724357">
                <ele>212.590000</ele>
                <time>2015-04-25T07:35:14Z</time>
            </trkpt>
            <trkpt lon="101.235477" lat="14.724355">
                <ele>213.550000</ele>
                <time>2015-04-25T07:35:55Z</time>
            </trkpt>
            <trkpt lon="101.235463" lat="14.724356">
                <ele>214.030000</ele>
                <time>2015-04-25T07:36:30Z</time>
            </trkpt>
            <trkpt lon="101.235457" lat="14.724358">
                <ele>213.550000</ele>
                <time>2015-04-25T07:37:03Z</time>
            </trkpt>
            <trkpt lon="101.235475" lat="14.724350">
                <ele>215.950000</ele>
                <time>2015-04-25T07:37:34Z</time>
            </trkpt>
            <trkpt lon="101.235470" lat="14.724345">
                <ele>215.470000</ele>
                <time>2015-04-25T07:38:05Z</time>
            </trkpt>
            <trkpt lon="101.235473" lat="14.724337">
                <ele>214.030000</ele>
                <time>2015-04-25T07:38:37Z</time>
            </trkpt>
            <trkpt lon="101.235483" lat="14.724342">
                <ele>213.070000</ele>
                <time>2015-04-25T07:39:09Z</time>
            </trkpt>
            <trkpt lon="101.235482" lat="14.724365">
                <ele>210.190000</ele>
                <time>2015-04-25T07:39:49Z</time>
            </trkpt>
            <trkpt lon="101.235482" lat="14.724366">
                <ele>213.550000</ele>
                <time>2015-04-25T07:40:29Z</time>
            </trkpt>
            <trkpt lon="101.235499" lat="14.724361">
                <ele>215.950000</ele>
                <time>2015-04-25T07:41:04Z</time>
            </trkpt>
            <trkpt lon="101.235504" lat="14.724352">
                <ele>213.550000</ele>
                <time>2015-04-25T07:41:39Z</time>
            </trkpt>
            <trkpt lon="101.235508" lat="14.724344">
                <ele>210.190000</ele>
                <time>2015-04-25T07:42:08Z</time>
            </trkpt>
            <trkpt lon="101.235505" lat="14.724355">
                <ele>206.820000</ele>
                <time>2015-04-25T07:42:39Z</time>
            </trkpt>
            <trkpt lon="101.235498" lat="14.724355">
                <ele>206.820000</ele>
                <time>2015-04-25T07:43:19Z</time>
            </trkpt>
            <trkpt lon="101.235477" lat="14.724350">
                <ele>209.220000</ele>
                <time>2015-04-25T07:44:04Z</time>
            </trkpt>
            <trkpt lon="101.235495" lat="14.724355">
                <ele>210.670000</ele>
                <time>2015-04-25T07:44:55Z</time>
            </trkpt>
            <trkpt lon="101.235488" lat="14.724356">
                <ele>210.190000</ele>
                <time>2015-04-25T07:45:47Z</time>
            </trkpt>
            <trkpt lon="101.235496" lat="14.724343">
                <ele>211.630000</ele>
                <time>2015-04-25T07:46:20Z</time>
            </trkpt>
            <trkpt lon="101.235488" lat="14.724345">
                <ele>212.590000</ele>
                <time>2015-04-25T07:47:08Z</time>
            </trkpt>
            <trkpt lon="101.235482" lat="14.724337">
                <ele>212.110000</ele>
                <time>2015-04-25T07:47:47Z</time>
            </trkpt>
            <trkpt lon="101.235481" lat="14.724344">
                <ele>213.550000</ele>
                <time>2015-04-25T07:48:17Z</time>
            </trkpt>
            <trkpt lon="101.235529" lat="14.724376">
                <ele>214.030000</ele>
                <time>2015-04-25T07:48:31Z</time>
            </trkpt>
            <trkpt lon="101.235570" lat="14.724649">
                <ele>213.070000</ele>
                <time>2015-04-25T07:48:41Z</time>
            </trkpt>
            <trkpt lon="101.235528" lat="14.725100">
                <ele>211.630000</ele>
                <time>2015-04-25T07:48:52Z</time>
            </trkpt>
            <trkpt lon="101.235582" lat="14.725968">
                <ele>207.780000</ele>
                <time>2015-04-25T07:49:10Z</time>
            </trkpt>
            <trkpt lon="101.235640" lat="14.726918">
                <ele>204.420000</ele>
                <time>2015-04-25T07:49:28Z</time>
            </trkpt>
            <trkpt lon="101.235687" lat="14.727863">
                <ele>200.090000</ele>
                <time>2015-04-25T07:49:44Z</time>
            </trkpt>
            <trkpt lon="101.235462" lat="14.728007">
                <ele>199.610000</ele>
                <time>2015-04-25T07:49:52Z</time>
            </trkpt>
            <trkpt lon="101.235346" lat="14.727973">
                <ele>199.610000</ele>
                <time>2015-04-25T07:49:55Z</time>
            </trkpt>
            <trkpt lon="101.234856" lat="14.727949">
                <ele>199.610000</ele>
                <time>2015-04-25T07:50:05Z</time>
            </trkpt>
            <trkpt lon="101.234564" lat="14.728257">
                <ele>197.210000</ele>
                <time>2015-04-25T07:50:14Z</time>
            </trkpt>
            <trkpt lon="101.234546" lat="14.729224">
                <ele>192.880000</ele>
                <time>2015-04-25T07:50:30Z</time>
            </trkpt>
            <trkpt lon="101.234573" lat="14.729528">
                <ele>191.440000</ele>
                <time>2015-04-25T07:50:39Z</time>
            </trkpt>
            <trkpt lon="101.234578" lat="14.729521">
                <ele>192.400000</ele>
                <time>2015-04-25T07:50:53Z</time>
            </trkpt>
            <trkpt lon="101.234581" lat="14.729516">
                <ele>194.800000</ele>
                <time>2015-04-25T07:51:16Z</time>
            </trkpt>
            <trkpt lon="101.234560" lat="14.729450">
                <ele>196.250000</ele>
                <time>2015-04-25T07:51:34Z</time>
            </trkpt>
            <trkpt lon="101.234551" lat="14.729423">
                <ele>196.730000</ele>
                <time>2015-04-25T07:51:37Z</time>
            </trkpt>
            <trkpt lon="101.234546" lat="14.729380">
                <ele>196.730000</ele>
                <time>2015-04-25T07:51:40Z</time>
            </trkpt>
            <trkpt lon="101.234529" lat="14.729300">
                <ele>196.730000</ele>
                <time>2015-04-25T07:51:45Z</time>
            </trkpt>
            <trkpt lon="101.234550" lat="14.728805">
                <ele>198.170000</ele>
                <time>2015-04-25T07:52:03Z</time>
            </trkpt>
            <trkpt lon="101.234563" lat="14.728221">
                <ele>200.090000</ele>
                <time>2015-04-25T07:52:23Z</time>
            </trkpt>
            <trkpt lon="101.234539" lat="14.728159">
                <ele>200.570000</ele>
                <time>2015-04-25T07:52:26Z</time>
            </trkpt>
            <trkpt lon="101.234432" lat="14.728150">
                <ele>200.090000</ele>
                <time>2015-04-25T07:52:31Z</time>
            </trkpt>
            <trkpt lon="101.234222" lat="14.728222">
                <ele>199.130000</ele>
                <time>2015-04-25T07:52:37Z</time>
            </trkpt>
            <trkpt lon="101.234033" lat="14.728226">
                <ele>198.170000</ele>
                <time>2015-04-25T07:52:41Z</time>
            </trkpt>
            <trkpt lon="101.233283" lat="14.728120">
                <ele>197.210000</ele>
                <time>2015-04-25T07:52:57Z</time>
            </trkpt>
            <trkpt lon="101.232938" lat="14.727942">
                <ele>199.130000</ele>
                <time>2015-04-25T07:53:09Z</time>
            </trkpt>
            <trkpt lon="101.232538" lat="14.727548">
                <ele>199.130000</ele>
                <time>2015-04-25T07:53:22Z</time>
            </trkpt>
            <trkpt lon="101.232269" lat="14.727365">
                <ele>201.050000</ele>
                <time>2015-04-25T07:53:33Z</time>
            </trkpt>
            <trkpt lon="101.232245" lat="14.727323">
                <ele>202.010000</ele>
                <time>2015-04-25T07:53:35Z</time>
            </trkpt>
            <trkpt lon="101.232209" lat="14.727291">
                <ele>202.010000</ele>
                <time>2015-04-25T07:53:37Z</time>
            </trkpt>
            <trkpt lon="101.232184" lat="14.727281">
                <ele>202.010000</ele>
                <time>2015-04-25T07:53:38Z</time>
            </trkpt>
            <trkpt lon="101.231624" lat="14.727215">
                <ele>200.570000</ele>
                <time>2015-04-25T07:53:50Z</time>
            </trkpt>
            <trkpt lon="101.230948" lat="14.727181">
                <ele>203.460000</ele>
                <time>2015-04-25T07:54:06Z</time>
            </trkpt>
            <trkpt lon="101.230501" lat="14.727088">
                <ele>204.900000</ele>
                <time>2015-04-25T07:54:19Z</time>
            </trkpt>
            <trkpt lon="101.229902" lat="14.727048">
                <ele>206.820000</ele>
                <time>2015-04-25T07:54:35Z</time>
            </trkpt>
            <trkpt lon="101.229561" lat="14.727047">
                <ele>208.260000</ele>
                <time>2015-04-25T07:54:47Z</time>
            </trkpt>
            <trkpt lon="101.229180" lat="14.727060">
                <ele>209.220000</ele>
                <time>2015-04-25T07:55:02Z</time>
            </trkpt>
            <trkpt lon="101.228699" lat="14.727100">
                <ele>208.260000</ele>
                <time>2015-04-25T07:55:17Z</time>
            </trkpt>
            <trkpt lon="101.228009" lat="14.727162">
                <ele>204.900000</ele>
                <time>2015-04-25T07:55:34Z</time>
            </trkpt>
            <trkpt lon="101.227241" lat="14.727229">
                <ele>203.460000</ele>
                <time>2015-04-25T07:55:49Z</time>
            </trkpt>
            <trkpt lon="101.227098" lat="14.727245">
                <ele>203.460000</ele>
                <time>2015-04-25T07:55:52Z</time>
            </trkpt>
            <trkpt lon="101.226736" lat="14.727347">
                <ele>202.980000</ele>
                <time>2015-04-25T07:55:59Z</time>
            </trkpt>
            <trkpt lon="101.225975" lat="14.727553">
                <ele>202.010000</ele>
                <time>2015-04-25T07:56:15Z</time>
            </trkpt>
            <trkpt lon="101.225204" lat="14.727695">
                <ele>201.530000</ele>
                <time>2015-04-25T07:56:31Z</time>
            </trkpt>
            <trkpt lon="101.224292" lat="14.727853">
                <ele>200.570000</ele>
                <time>2015-04-25T07:56:48Z</time>
            </trkpt>
            <trkpt lon="101.223685" lat="14.727966">
                <ele>200.570000</ele>
                <time>2015-04-25T07:57:01Z</time>
            </trkpt>
            <trkpt lon="101.223368" lat="14.728023">
                <ele>198.650000</ele>
                <time>2015-04-25T07:57:07Z</time>
            </trkpt>
            <trkpt lon="101.223321" lat="14.728033">
                <ele>198.170000</ele>
                <time>2015-04-25T07:57:08Z</time>
            </trkpt>
            <trkpt lon="101.223216" lat="14.728040">
                <ele>198.170000</ele>
                <time>2015-04-25T07:57:10Z</time>
            </trkpt>
            <trkpt lon="101.223160" lat="14.728035">
                <ele>198.170000</ele>
                <time>2015-04-25T07:57:11Z</time>
            </trkpt>
            <trkpt lon="101.223105" lat="14.728025">
                <ele>198.170000</ele>
                <time>2015-04-25T07:57:12Z</time>
            </trkpt>
            <trkpt lon="101.223050" lat="14.728011">
                <ele>197.690000</ele>
                <time>2015-04-25T07:57:13Z</time>
            </trkpt>
            <trkpt lon="101.222998" lat="14.727994">
                <ele>197.690000</ele>
                <time>2015-04-25T07:57:14Z</time>
            </trkpt>
            <trkpt lon="101.222586" lat="14.727837">
                <ele>194.800000</ele>
                <time>2015-04-25T07:57:22Z</time>
            </trkpt>
            <trkpt lon="101.222530" lat="14.727827">
                <ele>194.320000</ele>
                <time>2015-04-25T07:57:23Z</time>
            </trkpt>
            <trkpt lon="101.222232" lat="14.727825">
                <ele>193.360000</ele>
                <time>2015-04-25T07:57:28Z</time>
            </trkpt>
            <trkpt lon="101.222179" lat="14.727835">
                <ele>192.880000</ele>
                <time>2015-04-25T07:57:29Z</time>
            </trkpt>
            <trkpt lon="101.222025" lat="14.727843">
                <ele>192.880000</ele>
                <time>2015-04-25T07:57:33Z</time>
            </trkpt>
            <trkpt lon="101.222007" lat="14.727833">
                <ele>192.880000</ele>
                <time>2015-04-25T07:57:34Z</time>
            </trkpt>
            <trkpt lon="101.221992" lat="14.727818">
                <ele>192.880000</ele>
                <time>2015-04-25T07:57:35Z</time>
            </trkpt>
            <trkpt lon="101.221981" lat="14.727797">
                <ele>192.880000</ele>
                <time>2015-04-25T07:57:36Z</time>
            </trkpt>
            <trkpt lon="101.221975" lat="14.727775">
                <ele>193.360000</ele>
                <time>2015-04-25T07:57:37Z</time>
            </trkpt>
            <trkpt lon="101.221969" lat="14.727743">
                <ele>193.360000</ele>
                <time>2015-04-25T07:57:38Z</time>
            </trkpt>
            <trkpt lon="101.221966" lat="14.727705">
                <ele>193.360000</ele>
                <time>2015-04-25T07:57:39Z</time>
            </trkpt>
            <trkpt lon="101.221874" lat="14.727045">
                <ele>191.440000</ele>
                <time>2015-04-25T07:57:52Z</time>
            </trkpt>
            <trkpt lon="101.221861" lat="14.726972">
                <ele>191.920000</ele>
                <time>2015-04-25T07:57:59Z</time>
            </trkpt>
            <trkpt lon="101.221816" lat="14.727000">
                <ele>191.440000</ele>
                <time>2015-04-25T07:58:02Z</time>
            </trkpt>
            <trkpt lon="101.221817" lat="14.727030">
                <ele>191.440000</ele>
                <time>2015-04-25T07:58:03Z</time>
            </trkpt>
            <trkpt lon="101.221823" lat="14.727055">
                <ele>190.960000</ele>
                <time>2015-04-25T07:58:04Z</time>
            </trkpt>
            <trkpt lon="101.221857" lat="14.727346">
                <ele>189.520000</ele>
                <time>2015-04-25T07:58:12Z</time>
            </trkpt>
            <trkpt lon="101.221845" lat="14.727361">
                <ele>189.520000</ele>
                <time>2015-04-25T07:58:13Z</time>
            </trkpt>
            <trkpt lon="101.221778" lat="14.727374">
                <ele>188.080000</ele>
                <time>2015-04-25T07:58:16Z</time>
            </trkpt>
            <trkpt lon="101.221434" lat="14.727215">
                <ele>186.150000</ele>
                <time>2015-04-25T07:58:26Z</time>
            </trkpt>
            <trkpt lon="101.221347" lat="14.727137">
                <ele>186.630000</ele>
                <time>2015-04-25T07:58:29Z</time>
            </trkpt>
            <trkpt lon="101.220959" lat="14.726734">
                <ele>190.000000</ele>
                <time>2015-04-25T07:58:43Z</time>
            </trkpt>
            <trkpt lon="101.220659" lat="14.726410">
                <ele>191.440000</ele>
                <time>2015-04-25T07:58:58Z</time>
            </trkpt>
            <trkpt lon="101.220268" lat="14.725965">
                <ele>191.440000</ele>
                <time>2015-04-25T07:59:15Z</time>
            </trkpt>
            <trkpt lon="101.219898" lat="14.725471">
                <ele>193.360000</ele>
                <time>2015-04-25T07:59:32Z</time>
            </trkpt>
            <trkpt lon="101.219632" lat="14.724969">
                <ele>191.920000</ele>
                <time>2015-04-25T07:59:46Z</time>
            </trkpt>
            <trkpt lon="101.219390" lat="14.724356">
                <ele>193.360000</ele>
                <time>2015-04-25T08:00:00Z</time>
            </trkpt>
            <trkpt lon="101.219147" lat="14.723976">
                <ele>194.320000</ele>
                <time>2015-04-25T08:00:15Z</time>
            </trkpt>
            <trkpt lon="101.218685" lat="14.723314">
                <ele>192.400000</ele>
                <time>2015-04-25T08:00:30Z</time>
            </trkpt>
            <trkpt lon="101.218393" lat="14.722941">
                <ele>194.320000</ele>
                <time>2015-04-25T08:00:43Z</time>
            </trkpt>
            <trkpt lon="101.218185" lat="14.722602">
                <ele>194.800000</ele>
                <time>2015-04-25T08:00:56Z</time>
            </trkpt>
            <trkpt lon="101.218018" lat="14.722085">
                <ele>195.770000</ele>
                <time>2015-04-25T08:01:10Z</time>
            </trkpt>
            <trkpt lon="101.218003" lat="14.721705">
                <ele>195.280000</ele>
                <time>2015-04-25T08:01:23Z</time>
            </trkpt>
            <trkpt lon="101.217591" lat="14.721700">
                <ele>191.440000</ele>
                <time>2015-04-25T08:01:32Z</time>
            </trkpt>
            <trkpt lon="101.217346" lat="14.721607">
                <ele>190.480000</ele>
                <time>2015-04-25T08:01:36Z</time>
            </trkpt>
            <trkpt lon="101.216716" lat="14.721235">
                <ele>191.440000</ele>
                <time>2015-04-25T08:01:51Z</time>
            </trkpt>
            <trkpt lon="101.216136" lat="14.721284">
                <ele>190.480000</ele>
                <time>2015-04-25T08:02:03Z</time>
            </trkpt>
            <trkpt lon="101.215989" lat="14.721341">
                <ele>190.480000</ele>
                <time>2015-04-25T08:02:06Z</time>
            </trkpt>
            <trkpt lon="101.215569" lat="14.721393">
                <ele>190.480000</ele>
                <time>2015-04-25T08:02:15Z</time>
            </trkpt>
            <trkpt lon="101.215235" lat="14.721361">
                <ele>192.400000</ele>
                <time>2015-04-25T08:02:27Z</time>
            </trkpt>
            <trkpt lon="101.214936" lat="14.721418">
                <ele>193.360000</ele>
                <time>2015-04-25T08:02:38Z</time>
            </trkpt>
            <trkpt lon="101.214758" lat="14.721490">
                <ele>197.210000</ele>
                <time>2015-04-25T08:02:49Z</time>
            </trkpt>
            <trkpt lon="101.214663" lat="14.721579">
                <ele>199.130000</ele>
                <time>2015-04-25T08:02:56Z</time>
            </trkpt>
            <trkpt lon="101.214405" lat="14.721593">
                <ele>202.010000</ele>
                <time>2015-04-25T08:03:11Z</time>
            </trkpt>
            <trkpt lon="101.214211" lat="14.721378">
                <ele>200.570000</ele>
                <time>2015-04-25T08:03:23Z</time>
            </trkpt>
            <trkpt lon="101.213898" lat="14.721293">
                <ele>199.610000</ele>
                <time>2015-04-25T08:03:34Z</time>
            </trkpt>
            <trkpt lon="101.213478" lat="14.721172">
                <ele>200.570000</ele>
                <time>2015-04-25T08:03:49Z</time>
            </trkpt>
            <trkpt lon="101.213270" lat="14.721108">
                <ele>202.010000</ele>
                <time>2015-04-25T08:04:04Z</time>
            </trkpt>
            <trkpt lon="101.212875" lat="14.721030">
                <ele>200.090000</ele>
                <time>2015-04-25T08:04:16Z</time>
            </trkpt>
            <trkpt lon="101.212314" lat="14.720899">
                <ele>201.530000</ele>
                <time>2015-04-25T08:04:32Z</time>
            </trkpt>
            <trkpt lon="101.211689" lat="14.720722">
                <ele>203.460000</ele>
                <time>2015-04-25T08:04:52Z</time>
            </trkpt>
            <trkpt lon="101.210988" lat="14.720534">
                <ele>204.420000</ele>
                <time>2015-04-25T08:05:11Z</time>
            </trkpt>
            <trkpt lon="101.210576" lat="14.720409">
                <ele>206.820000</ele>
                <time>2015-04-25T08:05:27Z</time>
            </trkpt>
            <trkpt lon="101.210215" lat="14.720326">
                <ele>210.190000</ele>
                <time>2015-04-25T08:05:42Z</time>
            </trkpt>
            <trkpt lon="101.209966" lat="14.720273">
                <ele>212.590000</ele>
                <time>2015-04-25T08:05:56Z</time>
            </trkpt>
            <trkpt lon="101.209691" lat="14.720223">
                <ele>214.030000</ele>
                <time>2015-04-25T08:06:13Z</time>
            </trkpt>
            <trkpt lon="101.209316" lat="14.720213">
                <ele>214.030000</ele>
                <time>2015-04-25T08:06:26Z</time>
            </trkpt>
            <trkpt lon="101.208911" lat="14.720041">
                <ele>214.030000</ele>
                <time>2015-04-25T08:06:41Z</time>
            </trkpt>
            <trkpt lon="101.208529" lat="14.719915">
                <ele>215.470000</ele>
                <time>2015-04-25T08:06:55Z</time>
            </trkpt>
            <trkpt lon="101.208132" lat="14.719822">
                <ele>216.430000</ele>
                <time>2015-04-25T08:07:10Z</time>
            </trkpt>
            <trkpt lon="101.207820" lat="14.719752">
                <ele>218.360000</ele>
                <time>2015-04-25T08:07:24Z</time>
            </trkpt>
            <trkpt lon="101.207542" lat="14.719685">
                <ele>220.760000</ele>
                <time>2015-04-25T08:07:40Z</time>
            </trkpt>
            <trkpt lon="101.207289" lat="14.719637">
                <ele>223.160000</ele>
                <time>2015-04-25T08:07:57Z</time>
            </trkpt>
            <trkpt lon="101.207035" lat="14.719567">
                <ele>226.050000</ele>
                <time>2015-04-25T08:08:14Z</time>
            </trkpt>
            <trkpt lon="101.206997" lat="14.719557">
                <ele>226.050000</ele>
                <time>2015-04-25T08:08:16Z</time>
            </trkpt>
            <trkpt lon="101.206947" lat="14.719543">
                <ele>226.530000</ele>
                <time>2015-04-25T08:08:28Z</time>
            </trkpt>
            <trkpt lon="101.206936" lat="14.719539">
                <ele>226.530000</ele>
                <time>2015-04-25T08:08:34Z</time>
            </trkpt>
            <trkpt lon="101.206682" lat="14.719360">
                <ele>222.680000</ele>
                <time>2015-04-25T08:08:45Z</time>
            </trkpt>
            <trkpt lon="101.206624" lat="14.719294">
                <ele>222.200000</ele>
                <time>2015-04-25T08:08:47Z</time>
            </trkpt>
            <trkpt lon="101.206480" lat="14.719189">
                <ele>221.240000</ele>
                <time>2015-04-25T08:08:51Z</time>
            </trkpt>
            <trkpt lon="101.206082" lat="14.718957">
                <ele>220.760000</ele>
                <time>2015-04-25T08:09:01Z</time>
            </trkpt>
            <trkpt lon="101.206055" lat="14.718635">
                <ele>224.610000</ele>
                <time>2015-04-25T08:09:13Z</time>
            </trkpt>
            <trkpt lon="101.206095" lat="14.718330">
                <ele>224.610000</ele>
                <time>2015-04-25T08:09:21Z</time>
            </trkpt>
            <trkpt lon="101.206111" lat="14.718171">
                <ele>223.640000</ele>
                <time>2015-04-25T08:09:26Z</time>
            </trkpt>
            <trkpt lon="101.206002" lat="14.718156">
                <ele>223.640000</ele>
                <time>2015-04-25T08:09:32Z</time>
            </trkpt>
            <trkpt lon="101.205638" lat="14.717977">
                <ele>224.120000</ele>
                <time>2015-04-25T08:09:47Z</time>
            </trkpt>
            <trkpt lon="101.205241" lat="14.717794">
                <ele>225.570000</ele>
                <time>2015-04-25T08:10:04Z</time>
            </trkpt>
            <trkpt lon="101.204677" lat="14.717608">
                <ele>226.050000</ele>
                <time>2015-04-25T08:10:21Z</time>
            </trkpt>
            <trkpt lon="101.204608" lat="14.717608">
                <ele>227.010000</ele>
                <time>2015-04-25T08:10:29Z</time>
            </trkpt>
            <trkpt lon="101.204606" lat="14.717634">
                <ele>228.930000</ele>
                <time>2015-04-25T08:10:35Z</time>
            </trkpt>
            <trkpt lon="101.204654" lat="14.717795">
                <ele>230.370000</ele>
                <time>2015-04-25T08:10:50Z</time>
            </trkpt>
            <trkpt lon="101.204790" lat="14.717950">
                <ele>233.740000</ele>
                <time>2015-04-25T08:11:07Z</time>
            </trkpt>
            <trkpt lon="101.204915" lat="14.718076">
                <ele>236.620000</ele>
                <time>2015-04-25T08:11:22Z</time>
            </trkpt>
            <trkpt lon="101.205018" lat="14.718226">
                <ele>240.470000</ele>
                <time>2015-04-25T08:11:37Z</time>
            </trkpt>
            <trkpt lon="101.205054" lat="14.718334">
                <ele>242.870000</ele>
                <time>2015-04-25T08:11:46Z</time>
            </trkpt>
            <trkpt lon="101.205050" lat="14.718586">
                <ele>244.310000</ele>
                <time>2015-04-25T08:12:02Z</time>
            </trkpt>
            <trkpt lon="101.205184" lat="14.718846">
                <ele>244.310000</ele>
                <time>2015-04-25T08:12:17Z</time>
            </trkpt>
            <trkpt lon="101.205247" lat="14.718875">
                <ele>244.310000</ele>
                <time>2015-04-25T08:12:21Z</time>
            </trkpt>
            <trkpt lon="101.205579" lat="14.718843">
                <ele>243.830000</ele>
                <time>2015-04-25T08:12:33Z</time>
            </trkpt>
            <trkpt lon="101.205627" lat="14.718588">
                <ele>244.310000</ele>
                <time>2015-04-25T08:12:42Z</time>
            </trkpt>
            <trkpt lon="101.205310" lat="14.718358">
                <ele>244.310000</ele>
                <time>2015-04-25T08:12:53Z</time>
            </trkpt>
            <trkpt lon="101.205215" lat="14.718439">
                <ele>246.720000</ele>
                <time>2015-04-25T08:13:01Z</time>
            </trkpt>
            <trkpt lon="101.205257" lat="14.718634">
                <ele>247.200000</ele>
                <time>2015-04-25T08:13:17Z</time>
            </trkpt>
            <trkpt lon="101.205326" lat="14.718716">
                <ele>247.200000</ele>
                <time>2015-04-25T08:13:32Z</time>
            </trkpt>
            <trkpt lon="101.205317" lat="14.718708">
                <ele>246.720000</ele>
                <time>2015-04-25T08:13:53Z</time>
            </trkpt>
            <trkpt lon="101.205316" lat="14.718707">
                <ele>246.720000</ele>
                <time>2015-04-25T08:13:57Z</time>
            </trkpt>
            <trkpt lon="101.205253" lat="14.718603">
                <ele>246.720000</ele>
                <time>2015-04-25T08:14:05Z</time>
            </trkpt>
            <trkpt lon="101.205252" lat="14.718391">
                <ele>244.790000</ele>
                <time>2015-04-25T08:14:19Z</time>
            </trkpt>
            <trkpt lon="101.205306" lat="14.718365">
                <ele>244.310000</ele>
                <time>2015-04-25T08:14:21Z</time>
            </trkpt>
            <trkpt lon="101.205467" lat="14.718435">
                <ele>241.430000</ele>
                <time>2015-04-25T08:14:26Z</time>
            </trkpt>
            <trkpt lon="101.205631" lat="14.718725">
                <ele>241.430000</ele>
                <time>2015-04-25T08:14:36Z</time>
            </trkpt>
            <trkpt lon="101.205432" lat="14.718880">
                <ele>241.910000</ele>
                <time>2015-04-25T08:14:43Z</time>
            </trkpt>
            <trkpt lon="101.205051" lat="14.718675">
                <ele>242.390000</ele>
                <time>2015-04-25T08:14:55Z</time>
            </trkpt>
            <trkpt lon="101.205033" lat="14.718257">
                <ele>239.510000</ele>
                <time>2015-04-25T08:15:07Z</time>
            </trkpt>
            <trkpt lon="101.204861" lat="14.718025">
                <ele>235.180000</ele>
                <time>2015-04-25T08:15:18Z</time>
            </trkpt>
            <trkpt lon="101.204587" lat="14.717684">
                <ele>228.930000</ele>
                <time>2015-04-25T08:15:29Z</time>
            </trkpt>
            <trkpt lon="101.204564" lat="14.717538">
                <ele>227.010000</ele>
                <time>2015-04-25T08:15:33Z</time>
            </trkpt>
            <trkpt lon="101.204527" lat="14.717397">
                <ele>225.090000</ele>
                <time>2015-04-25T08:15:36Z</time>
            </trkpt>
            <trkpt lon="101.204364" lat="14.717220">
                <ele>225.090000</ele>
                <time>2015-04-25T08:15:42Z</time>
            </trkpt>
            <trkpt lon="101.203946" lat="14.716974">
                <ele>226.050000</ele>
                <time>2015-04-25T08:15:56Z</time>
            </trkpt>
            <trkpt lon="101.203622" lat="14.716772">
                <ele>228.450000</ele>
                <time>2015-04-25T08:16:09Z</time>
            </trkpt>
            <trkpt lon="101.203372" lat="14.716619">
                <ele>230.850000</ele>
                <time>2015-04-25T08:16:27Z</time>
            </trkpt>
            <trkpt lon="101.203124" lat="14.716458">
                <ele>232.780000</ele>
                <time>2015-04-25T08:16:45Z</time>
            </trkpt>
            <trkpt lon="101.202999" lat="14.716275">
                <ele>232.780000</ele>
                <time>2015-04-25T08:16:59Z</time>
            </trkpt>
            <trkpt lon="101.202938" lat="14.715985">
                <ele>230.370000</ele>
                <time>2015-04-25T08:17:12Z</time>
            </trkpt>
            <trkpt lon="101.202861" lat="14.715823">
                <ele>230.370000</ele>
                <time>2015-04-25T08:17:24Z</time>
            </trkpt>
            <trkpt lon="101.202868" lat="14.715766">
                <ele>231.330000</ele>
                <time>2015-04-25T08:17:35Z</time>
            </trkpt>
            <trkpt lon="101.202618" lat="14.715543">
                <ele>233.260000</ele>
                <time>2015-04-25T08:17:51Z</time>
            </trkpt>
            <trkpt lon="101.202591" lat="14.715454">
                <ele>233.740000</ele>
                <time>2015-04-25T08:17:56Z</time>
            </trkpt>
            <trkpt lon="101.202645" lat="14.715308">
                <ele>234.220000</ele>
                <time>2015-04-25T08:18:03Z</time>
            </trkpt>
            <trkpt lon="101.202635" lat="14.715270">
                <ele>234.220000</ele>
                <time>2015-04-25T08:18:05Z</time>
            </trkpt>
            <trkpt lon="101.202573" lat="14.715239">
                <ele>234.220000</ele>
                <time>2015-04-25T08:18:09Z</time>
            </trkpt>
            <trkpt lon="101.202140" lat="14.715290">
                <ele>235.180000</ele>
                <time>2015-04-25T08:18:26Z</time>
            </trkpt>
            <trkpt lon="101.201789" lat="14.715333">
                <ele>232.780000</ele>
                <time>2015-04-25T08:18:35Z</time>
            </trkpt>
            <trkpt lon="101.201500" lat="14.715374">
                <ele>235.660000</ele>
                <time>2015-04-25T08:18:47Z</time>
            </trkpt>
            <trkpt lon="101.201458" lat="14.715370">
                <ele>236.140000</ele>
                <time>2015-04-25T08:18:50Z</time>
            </trkpt>
            <trkpt lon="101.201197" lat="14.715333">
                <ele>237.100000</ele>
                <time>2015-04-25T08:19:07Z</time>
            </trkpt>
            <trkpt lon="101.200820" lat="14.715349">
                <ele>231.810000</ele>
                <time>2015-04-25T08:19:20Z</time>
            </trkpt>
            <trkpt lon="101.200717" lat="14.715606">
                <ele>228.930000</ele>
                <time>2015-04-25T08:19:27Z</time>
            </trkpt>
            <trkpt lon="101.200516" lat="14.716299">
                <ele>222.680000</ele>
                <time>2015-04-25T08:19:41Z</time>
            </trkpt>
            <trkpt lon="101.200202" lat="14.717223">
                <ele>216.430000</ele>
                <time>2015-04-25T08:19:57Z</time>
            </trkpt>
            <trkpt lon="101.199934" lat="14.717975">
                <ele>209.700000</ele>
                <time>2015-04-25T08:20:12Z</time>
            </trkpt>
            <trkpt lon="101.199979" lat="14.718279">
                <ele>207.780000</ele>
                <time>2015-04-25T08:20:19Z</time>
            </trkpt>
            <trkpt lon="101.200737" lat="14.718847">
                <ele>208.260000</ele>
                <time>2015-04-25T08:20:36Z</time>
            </trkpt>
            <trkpt lon="101.201027" lat="14.719119">
                <ele>208.260000</ele>
                <time>2015-04-25T08:20:44Z</time>
            </trkpt>
            <trkpt lon="101.201488" lat="14.719732">
                <ele>207.300000</ele>
                <time>2015-04-25T08:20:58Z</time>
            </trkpt>
            <trkpt lon="101.201678" lat="14.720012">
                <ele>209.220000</ele>
                <time>2015-04-25T08:21:09Z</time>
            </trkpt>
            <trkpt lon="101.201801" lat="14.720224">
                <ele>213.070000</ele>
                <time>2015-04-25T08:21:24Z</time>
            </trkpt>
            <trkpt lon="101.202013" lat="14.720450">
                <ele>213.070000</ele>
                <time>2015-04-25T08:21:40Z</time>
            </trkpt>
            <trkpt lon="101.202397" lat="14.720667">
                <ele>208.260000</ele>
                <time>2015-04-25T08:21:54Z</time>
            </trkpt>
            <trkpt lon="101.202445" lat="14.720713">
                <ele>206.820000</ele>
                <time>2015-04-25T08:21:56Z</time>
            </trkpt>
            <trkpt lon="101.202459" lat="14.720864">
                <ele>205.860000</ele>
                <time>2015-04-25T08:22:00Z</time>
            </trkpt>
            <trkpt lon="101.202327" lat="14.721194">
                <ele>204.420000</ele>
                <time>2015-04-25T08:22:10Z</time>
            </trkpt>
            <trkpt lon="101.202292" lat="14.721621">
                <ele>200.570000</ele>
                <time>2015-04-25T08:22:19Z</time>
            </trkpt>
            <trkpt lon="101.202528" lat="14.722013">
                <ele>199.130000</ele>
                <time>2015-04-25T08:22:28Z</time>
            </trkpt>
            <trkpt lon="101.202580" lat="14.722488">
                <ele>197.690000</ele>
                <time>2015-04-25T08:22:40Z</time>
            </trkpt>
            <trkpt lon="101.202560" lat="14.722877">
                <ele>195.770000</ele>
                <time>2015-04-25T08:22:49Z</time>
            </trkpt>
            <trkpt lon="101.202674" lat="14.723138">
                <ele>193.840000</ele>
                <time>2015-04-25T08:22:55Z</time>
            </trkpt>
            <trkpt lon="101.203198" lat="14.723518">
                <ele>190.960000</ele>
                <time>2015-04-25T08:23:07Z</time>
            </trkpt>
            <trkpt lon="101.203270" lat="14.723827">
                <ele>192.400000</ele>
                <time>2015-04-25T08:23:15Z</time>
            </trkpt>
            <trkpt lon="101.203210" lat="14.724052">
                <ele>198.650000</ele>
                <time>2015-04-25T08:23:32Z</time>
            </trkpt>
            <trkpt lon="101.203043" lat="14.724389">
                <ele>199.610000</ele>
                <time>2015-04-25T08:23:47Z</time>
            </trkpt>
            <trkpt lon="101.202810" lat="14.724706">
                <ele>200.090000</ele>
                <time>2015-04-25T08:24:01Z</time>
            </trkpt>
            <trkpt lon="101.202416" lat="14.725106">
                <ele>196.250000</ele>
                <time>2015-04-25T08:24:17Z</time>
            </trkpt>
            <trkpt lon="101.202237" lat="14.725419">
                <ele>192.400000</ele>
                <time>2015-04-25T08:24:25Z</time>
            </trkpt>
            <trkpt lon="101.201764" lat="14.725909">
                <ele>190.960000</ele>
                <time>2015-04-25T08:24:38Z</time>
            </trkpt>
            <trkpt lon="101.201502" lat="14.726212">
                <ele>190.960000</ele>
                <time>2015-04-25T08:24:51Z</time>
            </trkpt>
            <trkpt lon="101.201333" lat="14.726321">
                <ele>190.000000</ele>
                <time>2015-04-25T08:25:00Z</time>
            </trkpt>
            <trkpt lon="101.201270" lat="14.726348">
                <ele>190.480000</ele>
                <time>2015-04-25T08:25:12Z</time>
            </trkpt>
            <trkpt lon="101.201262" lat="14.726363">
                <ele>190.960000</ele>
                <time>2015-04-25T08:25:23Z</time>
            </trkpt>
            <trkpt lon="101.201209" lat="14.726632">
                <ele>190.960000</ele>
                <time>2015-04-25T08:25:34Z</time>
            </trkpt>
            <trkpt lon="101.201190" lat="14.726735">
                <ele>192.400000</ele>
                <time>2015-04-25T08:25:44Z</time>
            </trkpt>
            <trkpt lon="101.201180" lat="14.726763">
                <ele>193.360000</ele>
                <time>2015-04-25T08:25:47Z</time>
            </trkpt>
            <trkpt lon="101.201164" lat="14.726904">
                <ele>196.250000</ele>
                <time>2015-04-25T08:26:04Z</time>
            </trkpt>
            <trkpt lon="101.201156" lat="14.727055">
                <ele>199.610000</ele>
                <time>2015-04-25T08:26:20Z</time>
            </trkpt>
            <trkpt lon="101.201143" lat="14.727181">
                <ele>201.050000</ele>
                <time>2015-04-25T08:26:35Z</time>
            </trkpt>
            <trkpt lon="101.201102" lat="14.727333">
                <ele>200.570000</ele>
                <time>2015-04-25T08:26:46Z</time>
            </trkpt>
            <trkpt lon="101.201049" lat="14.727615">
                <ele>202.010000</ele>
                <time>2015-04-25T08:27:01Z</time>
            </trkpt>
            <trkpt lon="101.201007" lat="14.727792">
                <ele>204.900000</ele>
                <time>2015-04-25T08:27:14Z</time>
            </trkpt>
            <trkpt lon="101.200935" lat="14.728047">
                <ele>205.380000</ele>
                <time>2015-04-25T08:27:29Z</time>
            </trkpt>
            <trkpt lon="101.200897" lat="14.728217">
                <ele>202.490000</ele>
                <time>2015-04-25T08:27:35Z</time>
            </trkpt>
            <trkpt lon="101.200838" lat="14.728365">
                <ele>201.530000</ele>
                <time>2015-04-25T08:27:38Z</time>
            </trkpt>
            <trkpt lon="101.200642" lat="14.728660">
                <ele>203.940000</ele>
                <time>2015-04-25T08:27:50Z</time>
            </trkpt>
            <trkpt lon="101.200427" lat="14.728835">
                <ele>205.860000</ele>
                <time>2015-04-25T08:28:06Z</time>
            </trkpt>
            <trkpt lon="101.200276" lat="14.728922">
                <ele>209.220000</ele>
                <time>2015-04-25T08:28:22Z</time>
            </trkpt>
            <trkpt lon="101.200130" lat="14.728989">
                <ele>212.590000</ele>
                <time>2015-04-25T08:28:39Z</time>
            </trkpt>
            <trkpt lon="101.200048" lat="14.729071">
                <ele>214.510000</ele>
                <time>2015-04-25T08:28:53Z</time>
            </trkpt>
            <trkpt lon="101.199923" lat="14.729201">
                <ele>214.510000</ele>
                <time>2015-04-25T08:29:09Z</time>
            </trkpt>
            <trkpt lon="101.199806" lat="14.729217">
                <ele>215.470000</ele>
                <time>2015-04-25T08:29:25Z</time>
            </trkpt>
            <trkpt lon="101.199795" lat="14.729193">
                <ele>215.470000</ele>
                <time>2015-04-25T08:29:51Z</time>
            </trkpt>
            <trkpt lon="101.199775" lat="14.729182">
                <ele>217.400000</ele>
                <time>2015-04-25T08:30:10Z</time>
            </trkpt>
            <trkpt lon="101.199742" lat="14.729119">
                <ele>216.910000</ele>
                <time>2015-04-25T08:30:15Z</time>
            </trkpt>
            <trkpt lon="101.199698" lat="14.728858">
                <ele>214.510000</ele>
                <time>2015-04-25T08:30:27Z</time>
            </trkpt>
            <trkpt lon="101.199708" lat="14.728826">
                <ele>214.510000</ele>
                <time>2015-04-25T08:30:28Z</time>
            </trkpt>
            <trkpt lon="101.199757" lat="14.728621">
                <ele>213.070000</ele>
                <time>2015-04-25T08:30:33Z</time>
            </trkpt>
            <trkpt lon="101.199786" lat="14.728220">
                <ele>209.220000</ele>
                <time>2015-04-25T08:30:45Z</time>
            </trkpt>
            <trkpt lon="101.199623" lat="14.727788">
                <ele>202.010000</ele>
                <time>2015-04-25T08:30:58Z</time>
            </trkpt>
            <trkpt lon="101.199603" lat="14.727750">
                <ele>201.530000</ele>
                <time>2015-04-25T08:30:59Z</time>
            </trkpt>
            <trkpt lon="101.199528" lat="14.727602">
                <ele>199.130000</ele>
                <time>2015-04-25T08:31:03Z</time>
            </trkpt>
            <trkpt lon="101.199216" lat="14.727380">
                <ele>193.840000</ele>
                <time>2015-04-25T08:31:13Z</time>
            </trkpt>
            <trkpt lon="101.198717" lat="14.727459">
                <ele>192.880000</ele>
                <time>2015-04-25T08:31:27Z</time>
            </trkpt>
            <trkpt lon="101.198459" lat="14.727611">
                <ele>191.920000</ele>
                <time>2015-04-25T08:31:37Z</time>
            </trkpt>
            <trkpt lon="101.198451" lat="14.727675">
                <ele>192.400000</ele>
                <time>2015-04-25T08:31:42Z</time>
            </trkpt>
            <trkpt lon="101.198484" lat="14.727769">
                <ele>193.360000</ele>
                <time>2015-04-25T08:31:51Z</time>
            </trkpt>
            <trkpt lon="101.198478" lat="14.727882">
                <ele>194.320000</ele>
                <time>2015-04-25T08:32:02Z</time>
            </trkpt>
            <trkpt lon="101.198439" lat="14.728019">
                <ele>193.840000</ele>
                <time>2015-04-25T08:32:07Z</time>
            </trkpt>
            <trkpt lon="101.198393" lat="14.728284">
                <ele>192.880000</ele>
                <time>2015-04-25T08:32:17Z</time>
            </trkpt>
            <trkpt lon="101.198203" lat="14.728251">
                <ele>191.920000</ele>
                <time>2015-04-25T08:32:23Z</time>
            </trkpt>
            <trkpt lon="101.197762" lat="14.728186">
                <ele>189.520000</ele>
                <time>2015-04-25T08:32:34Z</time>
            </trkpt>
            <trkpt lon="101.197444" lat="14.728157">
                <ele>188.080000</ele>
                <time>2015-04-25T08:32:41Z</time>
            </trkpt>
            <trkpt lon="101.197143" lat="14.728117">
                <ele>185.190000</ele>
                <time>2015-04-25T08:32:48Z</time>
            </trkpt>
            <trkpt lon="101.196790" lat="14.728157">
                <ele>182.790000</ele>
                <time>2015-04-25T08:32:58Z</time>
            </trkpt>
            <trkpt lon="101.196738" lat="14.728086">
                <ele>182.310000</ele>
                <time>2015-04-25T08:33:03Z</time>
            </trkpt>
            <trkpt lon="101.196633" lat="14.727809">
                <ele>184.230000</ele>
                <time>2015-04-25T08:33:14Z</time>
            </trkpt>
            <trkpt lon="101.196497" lat="14.727391">
                <ele>186.150000</ele>
                <time>2015-04-25T08:33:27Z</time>
            </trkpt>
            <trkpt lon="101.196472" lat="14.727130">
                <ele>183.750000</ele>
                <time>2015-04-25T08:33:36Z</time>
            </trkpt>
            <trkpt lon="101.196294" lat="14.727095">
                <ele>182.310000</ele>
                <time>2015-04-25T08:33:41Z</time>
            </trkpt>
            <trkpt lon="101.195499" lat="14.727074">
                <ele>178.460000</ele>
                <time>2015-04-25T08:33:55Z</time>
            </trkpt>
            <trkpt lon="101.194476" lat="14.727008">
                <ele>174.620000</ele>
                <time>2015-04-25T08:34:11Z</time>
            </trkpt>
            <trkpt lon="101.193550" lat="14.726922">
                <ele>175.100000</ele>
                <time>2015-04-25T08:34:25Z</time>
            </trkpt>
            <trkpt lon="101.193250" lat="14.726878">
                <ele>178.460000</ele>
                <time>2015-04-25T08:34:36Z</time>
            </trkpt>
            <trkpt lon="101.192821" lat="14.726823">
                <ele>178.460000</ele>
                <time>2015-04-25T08:34:51Z</time>
            </trkpt>
            <trkpt lon="101.192218" lat="14.726770">
                <ele>170.290000</ele>
                <time>2015-04-25T08:35:04Z</time>
            </trkpt>
            <trkpt lon="101.192114" lat="14.726728">
                <ele>168.850000</ele>
                <time>2015-04-25T08:35:08Z</time>
            </trkpt>
            <trkpt lon="101.192089" lat="14.726629">
                <ele>168.850000</ele>
                <time>2015-04-25T08:35:14Z</time>
            </trkpt>
            <trkpt lon="101.192064" lat="14.726557">
                <ele>169.330000</ele>
                <time>2015-04-25T08:35:24Z</time>
            </trkpt>
            <trkpt lon="101.192008" lat="14.726443">
                <ele>174.620000</ele>
                <time>2015-04-25T08:35:37Z</time>
            </trkpt>
            <trkpt lon="101.191937" lat="14.726300">
                <ele>181.350000</ele>
                <time>2015-04-25T08:35:51Z</time>
            </trkpt>
            <trkpt lon="101.191915" lat="14.726275">
                <ele>181.350000</ele>
                <time>2015-04-25T08:35:53Z</time>
            </trkpt>
            <trkpt lon="101.191674" lat="14.726114">
                <ele>178.460000</ele>
                <time>2015-04-25T08:36:06Z</time>
            </trkpt>
            <trkpt lon="101.191534" lat="14.725842">
                <ele>182.310000</ele>
                <time>2015-04-25T08:36:18Z</time>
            </trkpt>
            <trkpt lon="101.191389" lat="14.725562">
                <ele>181.350000</ele>
                <time>2015-04-25T08:36:29Z</time>
            </trkpt>
            <trkpt lon="101.191270" lat="14.725281">
                <ele>183.750000</ele>
                <time>2015-04-25T08:36:43Z</time>
            </trkpt>
            <trkpt lon="101.191295" lat="14.725115">
                <ele>185.190000</ele>
                <time>2015-04-25T08:36:51Z</time>
            </trkpt>
            <trkpt lon="101.191294" lat="14.725027">
                <ele>186.630000</ele>
                <time>2015-04-25T08:36:55Z</time>
            </trkpt>
            <trkpt lon="101.191359" lat="14.724828">
                <ele>189.520000</ele>
                <time>2015-04-25T08:37:04Z</time>
            </trkpt>
            <trkpt lon="101.191374" lat="14.724776">
                <ele>190.960000</ele>
                <time>2015-04-25T08:37:07Z</time>
            </trkpt>
            <trkpt lon="101.191549" lat="14.724569">
                <ele>192.400000</ele>
                <time>2015-04-25T08:37:19Z</time>
            </trkpt>
            <trkpt lon="101.191594" lat="14.724420">
                <ele>192.880000</ele>
                <time>2015-04-25T08:37:30Z</time>
            </trkpt>
            <trkpt lon="101.191607" lat="14.724365">
                <ele>193.360000</ele>
                <time>2015-04-25T08:37:42Z</time>
            </trkpt>
            <trkpt lon="101.191640" lat="14.724272">
                <ele>192.880000</ele>
                <time>2015-04-25T08:37:56Z</time>
            </trkpt>
            <trkpt lon="101.191640" lat="14.724245">
                <ele>192.400000</ele>
                <time>2015-04-25T08:37:59Z</time>
            </trkpt>
            <trkpt lon="101.191623" lat="14.724134">
                <ele>190.960000</ele>
                <time>2015-04-25T08:38:06Z</time>
            </trkpt>
            <trkpt lon="101.191608" lat="14.724080">
                <ele>191.440000</ele>
                <time>2015-04-25T08:38:09Z</time>
            </trkpt>
            <trkpt lon="101.191477" lat="14.723956">
                <ele>191.920000</ele>
                <time>2015-04-25T08:38:23Z</time>
            </trkpt>
            <trkpt lon="101.191466" lat="14.723913">
                <ele>191.920000</ele>
                <time>2015-04-25T08:38:29Z</time>
            </trkpt>
            <trkpt lon="101.191470" lat="14.723844">
                <ele>192.400000</ele>
                <time>2015-04-25T08:38:33Z</time>
            </trkpt>
            <trkpt lon="101.191427" lat="14.723694">
                <ele>190.960000</ele>
                <time>2015-04-25T08:38:41Z</time>
            </trkpt>
            <trkpt lon="101.191341" lat="14.723595">
                <ele>187.590000</ele>
                <time>2015-04-25T08:38:48Z</time>
            </trkpt>
            <trkpt lon="101.191320" lat="14.723572">
                <ele>187.110000</ele>
                <time>2015-04-25T08:38:50Z</time>
            </trkpt>
            <trkpt lon="101.191133" lat="14.723433">
                <ele>185.190000</ele>
                <time>2015-04-25T08:39:01Z</time>
            </trkpt>
            <trkpt lon="101.190958" lat="14.723370">
                <ele>185.670000</ele>
                <time>2015-04-25T08:39:15Z</time>
            </trkpt>
            <trkpt lon="101.190880" lat="14.723351">
                <ele>188.080000</ele>
                <time>2015-04-25T08:39:30Z</time>
            </trkpt>
            <trkpt lon="101.190829" lat="14.723352">
                <ele>189.040000</ele>
                <time>2015-04-25T08:39:37Z</time>
            </trkpt>
            <trkpt lon="101.190769" lat="14.723331">
                <ele>187.590000</ele>
                <time>2015-04-25T08:39:41Z</time>
            </trkpt>
            <trkpt lon="101.190625" lat="14.723331">
                <ele>187.110000</ele>
                <time>2015-04-25T08:39:54Z</time>
            </trkpt>
            <trkpt lon="101.190485" lat="14.723341">
                <ele>189.520000</ele>
                <time>2015-04-25T08:40:08Z</time>
            </trkpt>
            <trkpt lon="101.190382" lat="14.723366">
                <ele>190.960000</ele>
                <time>2015-04-25T08:40:21Z</time>
            </trkpt>
            <trkpt lon="101.190327" lat="14.723365">
                <ele>191.440000</ele>
                <time>2015-04-25T08:40:30Z</time>
            </trkpt>
            <trkpt lon="101.190180" lat="14.723368">
                <ele>190.000000</ele>
                <time>2015-04-25T08:40:45Z</time>
            </trkpt>
            <trkpt lon="101.190044" lat="14.723371">
                <ele>189.520000</ele>
                <time>2015-04-25T08:40:57Z</time>
            </trkpt>
            <trkpt lon="101.189685" lat="14.723344">
                <ele>186.630000</ele>
                <time>2015-04-25T08:41:08Z</time>
            </trkpt>
            <trkpt lon="101.189445" lat="14.723276">
                <ele>186.150000</ele>
                <time>2015-04-25T08:41:17Z</time>
            </trkpt>
            <trkpt lon="101.189245" lat="14.723195">
                <ele>190.000000</ele>
                <time>2015-04-25T08:41:30Z</time>
            </trkpt>
            <trkpt lon="101.189175" lat="14.723154">
                <ele>191.920000</ele>
                <time>2015-04-25T08:41:42Z</time>
            </trkpt>
            <trkpt lon="101.188997" lat="14.723041">
                <ele>190.480000</ele>
                <time>2015-04-25T08:41:54Z</time>
            </trkpt>
            <trkpt lon="101.188874" lat="14.722927">
                <ele>190.480000</ele>
                <time>2015-04-25T08:42:01Z</time>
            </trkpt>
            <trkpt lon="101.188824" lat="14.722813">
                <ele>191.440000</ele>
                <time>2015-04-25T08:42:11Z</time>
            </trkpt>
            <trkpt lon="101.188772" lat="14.722695">
                <ele>194.320000</ele>
                <time>2015-04-25T08:42:23Z</time>
            </trkpt>
            <trkpt lon="101.188724" lat="14.722570">
                <ele>197.210000</ele>
                <time>2015-04-25T08:42:38Z</time>
            </trkpt>
            <trkpt lon="101.188674" lat="14.722410">
                <ele>200.090000</ele>
                <time>2015-04-25T08:42:53Z</time>
            </trkpt>
            <trkpt lon="101.188630" lat="14.722249">
                <ele>202.980000</ele>
                <time>2015-04-25T08:43:09Z</time>
            </trkpt>
            <trkpt lon="101.188588" lat="14.722031">
                <ele>205.380000</ele>
                <time>2015-04-25T08:43:21Z</time>
            </trkpt>
            <trkpt lon="101.188534" lat="14.721770">
                <ele>206.340000</ele>
                <time>2015-04-25T08:43:34Z</time>
            </trkpt>
            <trkpt lon="101.188495" lat="14.721486">
                <ele>201.530000</ele>
                <time>2015-04-25T08:43:46Z</time>
            </trkpt>
            <trkpt lon="101.188453" lat="14.721064">
                <ele>198.170000</ele>
                <time>2015-04-25T08:44:02Z</time>
            </trkpt>
            <trkpt lon="101.188441" lat="14.720594">
                <ele>193.840000</ele>
                <time>2015-04-25T08:44:17Z</time>
            </trkpt>
            <trkpt lon="101.188679" lat="14.720255">
                <ele>193.840000</ele>
                <time>2015-04-25T08:44:30Z</time>
            </trkpt>
            <trkpt lon="101.188985" lat="14.719955">
                <ele>194.320000</ele>
                <time>2015-04-25T08:44:43Z</time>
            </trkpt>
            <trkpt lon="101.189344" lat="14.719631">
                <ele>191.920000</ele>
                <time>2015-04-25T08:44:59Z</time>
            </trkpt>
            <trkpt lon="101.189371" lat="14.719607">
                <ele>191.440000</ele>
                <time>2015-04-25T08:45:00Z</time>
            </trkpt>
            <trkpt lon="101.189432" lat="14.719549">
                <ele>190.480000</ele>
                <time>2015-04-25T08:45:02Z</time>
            </trkpt>
            <trkpt lon="101.189687" lat="14.719338">
                <ele>189.040000</ele>
                <time>2015-04-25T08:45:09Z</time>
            </trkpt>
            <trkpt lon="101.190017" lat="14.718925">
                <ele>190.480000</ele>
                <time>2015-04-25T08:45:24Z</time>
            </trkpt>
            <trkpt lon="101.190153" lat="14.718711">
                <ele>193.840000</ele>
                <time>2015-04-25T08:45:37Z</time>
            </trkpt>
            <trkpt lon="101.190305" lat="14.718310">
                <ele>192.880000</ele>
                <time>2015-04-25T08:45:52Z</time>
            </trkpt>
            <trkpt lon="101.190428" lat="14.717899">
                <ele>190.960000</ele>
                <time>2015-04-25T08:46:04Z</time>
            </trkpt>
            <trkpt lon="101.190609" lat="14.717548">
                <ele>190.480000</ele>
                <time>2015-04-25T08:46:15Z</time>
            </trkpt>
            <trkpt lon="101.190769" lat="14.717254">
                <ele>192.400000</ele>
                <time>2015-04-25T08:46:28Z</time>
            </trkpt>
            <trkpt lon="101.190778" lat="14.716968">
                <ele>192.400000</ele>
                <time>2015-04-25T08:46:40Z</time>
            </trkpt>
            <trkpt lon="101.190865" lat="14.716584">
                <ele>193.840000</ele>
                <time>2015-04-25T08:46:52Z</time>
            </trkpt>
            <trkpt lon="101.191099" lat="14.716416">
                <ele>195.280000</ele>
                <time>2015-04-25T08:47:04Z</time>
            </trkpt>
            <trkpt lon="101.191314" lat="14.716325">
                <ele>198.650000</ele>
                <time>2015-04-25T08:47:16Z</time>
            </trkpt>
            <trkpt lon="101.191586" lat="14.716218">
                <ele>203.460000</ele>
                <time>2015-04-25T08:47:29Z</time>
            </trkpt>
            <trkpt lon="101.191926" lat="14.716104">
                <ele>204.900000</ele>
                <time>2015-04-25T08:47:45Z</time>
            </trkpt>
            <trkpt lon="101.192242" lat="14.715985">
                <ele>206.340000</ele>
                <time>2015-04-25T08:48:00Z</time>
            </trkpt>
            <trkpt lon="101.192443" lat="14.715877">
                <ele>208.740000</ele>
                <time>2015-04-25T08:48:10Z</time>
            </trkpt>
            <trkpt lon="101.192433" lat="14.715718">
                <ele>208.740000</ele>
                <time>2015-04-25T08:48:16Z</time>
            </trkpt>
            <trkpt lon="101.192404" lat="14.715617">
                <ele>207.780000</ele>
                <time>2015-04-25T08:48:20Z</time>
            </trkpt>
            <trkpt lon="101.192319" lat="14.715329">
                <ele>207.300000</ele>
                <time>2015-04-25T08:48:31Z</time>
            </trkpt>
            <trkpt lon="101.192221" lat="14.714849">
                <ele>208.740000</ele>
                <time>2015-04-25T08:48:46Z</time>
            </trkpt>
            <trkpt lon="101.192049" lat="14.714399">
                <ele>209.700000</ele>
                <time>2015-04-25T08:48:59Z</time>
            </trkpt>
            <trkpt lon="101.191922" lat="14.714114">
                <ele>211.150000</ele>
                <time>2015-04-25T08:49:06Z</time>
            </trkpt>
            <trkpt lon="101.191861" lat="14.713947">
                <ele>212.590000</ele>
                <time>2015-04-25T08:49:10Z</time>
            </trkpt>
            <trkpt lon="101.191793" lat="14.713780">
                <ele>213.070000</ele>
                <time>2015-04-25T08:49:14Z</time>
            </trkpt>
            <trkpt lon="101.191641" lat="14.713386">
                <ele>213.070000</ele>
                <time>2015-04-25T08:49:23Z</time>
            </trkpt>
            <trkpt lon="101.191548" lat="14.712627">
                <ele>210.670000</ele>
                <time>2015-04-25T08:49:39Z</time>
            </trkpt>
            <trkpt lon="101.191531" lat="14.712500">
                <ele>209.700000</ele>
                <time>2015-04-25T08:49:42Z</time>
            </trkpt>
            <trkpt lon="101.191502" lat="14.711875">
                <ele>208.260000</ele>
                <time>2015-04-25T08:49:56Z</time>
            </trkpt>
            <trkpt lon="101.191449" lat="14.711557">
                <ele>208.260000</ele>
                <time>2015-04-25T08:50:07Z</time>
            </trkpt>
            <trkpt lon="101.191423" lat="14.711292">
                <ele>206.340000</ele>
                <time>2015-04-25T08:50:15Z</time>
            </trkpt>
            <trkpt lon="101.191306" lat="14.710930">
                <ele>206.340000</ele>
                <time>2015-04-25T08:50:28Z</time>
            </trkpt>
            <trkpt lon="101.191165" lat="14.710586">
                <ele>202.490000</ele>
                <time>2015-04-25T08:50:38Z</time>
            </trkpt>
            <trkpt lon="101.191045" lat="14.710376">
                <ele>202.980000</ele>
                <time>2015-04-25T08:50:48Z</time>
            </trkpt>
            <trkpt lon="101.190899" lat="14.710107">
                <ele>202.010000</ele>
                <time>2015-04-25T08:50:59Z</time>
            </trkpt>
            <trkpt lon="101.190791" lat="14.709880">
                <ele>201.530000</ele>
                <time>2015-04-25T08:51:09Z</time>
            </trkpt>
            <trkpt lon="101.190872" lat="14.709750">
                <ele>202.490000</ele>
                <time>2015-04-25T08:51:14Z</time>
            </trkpt>
            <trkpt lon="101.191108" lat="14.709447">
                <ele>202.010000</ele>
                <time>2015-04-25T08:51:26Z</time>
            </trkpt>
            <trkpt lon="101.191252" lat="14.709294">
                <ele>202.980000</ele>
                <time>2015-04-25T08:51:33Z</time>
            </trkpt>
            <trkpt lon="101.191259" lat="14.708940">
                <ele>202.490000</ele>
                <time>2015-04-25T08:51:43Z</time>
            </trkpt>
            <trkpt lon="101.191088" lat="14.708576">
                <ele>201.050000</ele>
                <time>2015-04-25T08:51:53Z</time>
            </trkpt>
            <trkpt lon="101.191007" lat="14.708141">
                <ele>200.570000</ele>
                <time>2015-04-25T08:52:04Z</time>
            </trkpt>
            <trkpt lon="101.190998" lat="14.707990">
                <ele>198.650000</ele>
                <time>2015-04-25T08:52:08Z</time>
            </trkpt>
            <trkpt lon="101.191065" lat="14.707696">
                <ele>195.280000</ele>
                <time>2015-04-25T08:52:15Z</time>
            </trkpt>
            <trkpt lon="101.191346" lat="14.707306">
                <ele>194.800000</ele>
                <time>2015-04-25T08:52:28Z</time>
            </trkpt>
            <trkpt lon="101.191562" lat="14.707065">
                <ele>193.840000</ele>
                <time>2015-04-25T08:52:40Z</time>
            </trkpt>
            <trkpt lon="101.191561" lat="14.707046">
                <ele>193.360000</ele>
                <time>2015-04-25T08:52:53Z</time>
            </trkpt>
        </trkseg>
    </trk>
</gpx>